<?xml version="1.0" encoding="UTF-8" standalone="no" ?>
<gpx xmlns="http://www.topografix.com/GPX/1/1" xmlns:xsi="http://www.w3.org/2001/XMLSchema-instance" xsi:schemaLocation="http://www.topografix.com/GPX/1/1 http://www.topografix.com/GPX/1/1/gpx.xsd" version="1.1" creator="VisuGPX - https://www.visugpx.com">
  <metadata>
    <name>VTT 13 mars 2019</name>
    <desc><![CDATA[VTT 13 mars 2019 vers mont Aurelien]]></desc>
  </metadata>
  <trk>
    <name><![CDATA[2019-02-24 12:00:22 001]]></name>
    <trkseg>
      <trkpt lat="43.43959" lon="5.86019">
        <ele>166.93</ele>
        <time>2019-02-24T08:26:41Z</time>
      </trkpt>
      <trkpt lat="43.43957" lon="5.86023">
        <ele>166.93</ele>
        <time>2019-02-24T08:27:03Z</time>
      </trkpt>
      <trkpt lat="43.43953" lon="5.86032">
        <ele>168.37</ele>
        <time>2019-02-24T08:27:22Z</time>
      </trkpt>
      <trkpt lat="43.43977" lon="5.86044">
        <ele>168.37</ele>
        <time>2019-02-24T08:49:43Z</time>
      </trkpt>
      <trkpt lat="43.43968" lon="5.8604">
        <ele>168.37</ele>
        <time>2019-02-24T08:50:01Z</time>
      </trkpt>
      <trkpt lat="43.43973" lon="5.86018">
        <ele>174.14</ele>
        <time>2019-02-24T08:50:12Z</time>
      </trkpt>
      <trkpt lat="43.43973" lon="5.86018">
        <ele>185.19</ele>
        <time>2019-02-24T08:50:13Z</time>
      </trkpt>
      <trkpt lat="43.43973" lon="5.86018">
        <ele>190</ele>
        <time>2019-02-24T08:50:14Z</time>
      </trkpt>
      <trkpt lat="43.43973" lon="5.86019">
        <ele>190</ele>
        <time>2019-02-24T08:50:15Z</time>
      </trkpt>
      <trkpt lat="43.43973" lon="5.86019">
        <ele>194.8</ele>
        <time>2019-02-24T08:50:16Z</time>
      </trkpt>
      <trkpt lat="43.43973" lon="5.86019">
        <ele>199.61</ele>
        <time>2019-02-24T08:50:17Z</time>
      </trkpt>
      <trkpt lat="43.43973" lon="5.86019">
        <ele>204.42</ele>
        <time>2019-02-24T08:50:18Z</time>
      </trkpt>
      <trkpt lat="43.43972" lon="5.86019">
        <ele>208.74</ele>
        <time>2019-02-24T08:50:19Z</time>
      </trkpt>
      <trkpt lat="43.43972" lon="5.8602">
        <ele>213.07</ele>
        <time>2019-02-24T08:50:20Z</time>
      </trkpt>
      <trkpt lat="43.43972" lon="5.8602">
        <ele>217.4</ele>
        <time>2019-02-24T08:50:21Z</time>
      </trkpt>
      <trkpt lat="43.43972" lon="5.8602">
        <ele>221.24</ele>
        <time>2019-02-24T08:50:22Z</time>
      </trkpt>
      <trkpt lat="43.43972" lon="5.8602">
        <ele>225.09</ele>
        <time>2019-02-24T08:50:23Z</time>
      </trkpt>
      <trkpt lat="43.43972" lon="5.8602">
        <ele>228.93</ele>
        <time>2019-02-24T08:50:24Z</time>
      </trkpt>
      <trkpt lat="43.43971" lon="5.8602">
        <ele>232.3</ele>
        <time>2019-02-24T08:50:25Z</time>
      </trkpt>
      <trkpt lat="43.43971" lon="5.8602">
        <ele>236.14</ele>
        <time>2019-02-24T08:50:26Z</time>
      </trkpt>
      <trkpt lat="43.43971" lon="5.8602">
        <ele>239.51</ele>
        <time>2019-02-24T08:50:27Z</time>
      </trkpt>
      <trkpt lat="43.43971" lon="5.8602">
        <ele>242.39</ele>
        <time>2019-02-24T08:50:28Z</time>
      </trkpt>
      <trkpt lat="43.4397" lon="5.8602">
        <ele>245.75</ele>
        <time>2019-02-24T08:50:29Z</time>
      </trkpt>
      <trkpt lat="43.4397" lon="5.8602">
        <ele>248.64</ele>
        <time>2019-02-24T08:50:30Z</time>
      </trkpt>
      <trkpt lat="43.4397" lon="5.8602">
        <ele>254.89</ele>
        <time>2019-02-24T08:50:32Z</time>
      </trkpt>
      <trkpt lat="43.4397" lon="5.8602">
        <ele>260.17</ele>
        <time>2019-02-24T08:50:34Z</time>
      </trkpt>
      <trkpt lat="43.43969" lon="5.86019">
        <ele>265.46</ele>
        <time>2019-02-24T08:50:36Z</time>
      </trkpt>
      <trkpt lat="43.43969" lon="5.86019">
        <ele>270.27</ele>
        <time>2019-02-24T08:50:38Z</time>
      </trkpt>
      <trkpt lat="43.43969" lon="5.86018">
        <ele>276.52</ele>
        <time>2019-02-24T08:50:40Z</time>
      </trkpt>
      <trkpt lat="43.43969" lon="5.86018">
        <ele>276.52</ele>
        <time>2019-02-24T08:50:41Z</time>
      </trkpt>
      <trkpt lat="43.4397" lon="5.86018">
        <ele>280.84</ele>
        <time>2019-02-24T08:50:43Z</time>
      </trkpt>
      <trkpt lat="43.4397" lon="5.86018">
        <ele>284.21</ele>
        <time>2019-02-24T08:50:45Z</time>
      </trkpt>
      <trkpt lat="43.43971" lon="5.86018">
        <ele>287.57</ele>
        <time>2019-02-24T08:50:47Z</time>
      </trkpt>
      <trkpt lat="43.43971" lon="5.86019">
        <ele>290.94</ele>
        <time>2019-02-24T08:50:49Z</time>
      </trkpt>
      <trkpt lat="43.43973" lon="5.86019">
        <ele>295.26</ele>
        <time>2019-02-24T08:50:52Z</time>
      </trkpt>
      <trkpt lat="43.43973" lon="5.8602">
        <ele>295.74</ele>
        <time>2019-02-24T08:50:53Z</time>
      </trkpt>
      <trkpt lat="43.43974" lon="5.8602">
        <ele>299.59</ele>
        <time>2019-02-24T08:50:56Z</time>
      </trkpt>
      <trkpt lat="43.43974" lon="5.8602">
        <ele>302.95</ele>
        <time>2019-02-24T08:50:59Z</time>
      </trkpt>
      <trkpt lat="43.43973" lon="5.8602">
        <ele>306.32</ele>
        <time>2019-02-24T08:51:02Z</time>
      </trkpt>
      <trkpt lat="43.43973" lon="5.8602">
        <ele>310.16</ele>
        <time>2019-02-24T08:51:05Z</time>
      </trkpt>
      <trkpt lat="43.43972" lon="5.8602">
        <ele>310.16</ele>
        <time>2019-02-24T08:51:06Z</time>
      </trkpt>
      <trkpt lat="43.43971" lon="5.86019">
        <ele>313.05</ele>
        <time>2019-02-24T08:51:10Z</time>
      </trkpt>
      <trkpt lat="43.4397" lon="5.86018">
        <ele>316.89</ele>
        <time>2019-02-24T08:51:15Z</time>
      </trkpt>
      <trkpt lat="43.4397" lon="5.86018">
        <ele>320.26</ele>
        <time>2019-02-24T08:51:21Z</time>
      </trkpt>
      <trkpt lat="43.4397" lon="5.86019">
        <ele>323.14</ele>
        <time>2019-02-24T08:51:28Z</time>
      </trkpt>
      <trkpt lat="43.4397" lon="5.8602">
        <ele>326.5</ele>
        <time>2019-02-24T08:51:37Z</time>
      </trkpt>
      <trkpt lat="43.43972" lon="5.86022">
        <ele>329.39</ele>
        <time>2019-02-24T08:51:50Z</time>
      </trkpt>
      <trkpt lat="43.43973" lon="5.86023">
        <ele>332.75</ele>
        <time>2019-02-24T08:52:07Z</time>
      </trkpt>
      <trkpt lat="43.43973" lon="5.86024">
        <ele>333.71</ele>
        <time>2019-02-24T08:52:45Z</time>
      </trkpt>
      <trkpt lat="43.43969" lon="5.86025">
        <ele>333.71</ele>
        <time>2019-02-24T08:53:16Z</time>
      </trkpt>
      <trkpt lat="43.4397" lon="5.86023">
        <ele>333.71</ele>
        <time>2019-02-24T08:53:40Z</time>
      </trkpt>
      <trkpt lat="43.43972" lon="5.86024">
        <ele>333.71</ele>
        <time>2019-02-24T08:54:14Z</time>
      </trkpt>
      <trkpt lat="43.43973" lon="5.86022">
        <ele>334.2</ele>
        <time>2019-02-24T08:54:54Z</time>
      </trkpt>
      <trkpt lat="43.43973" lon="5.8602">
        <ele>334.2</ele>
        <time>2019-02-24T08:55:27Z</time>
      </trkpt>
      <trkpt lat="43.43973" lon="5.86021">
        <ele>334.2</ele>
        <time>2019-02-24T08:56:01Z</time>
      </trkpt>
      <trkpt lat="43.43976" lon="5.86022">
        <ele>334.2</ele>
        <time>2019-02-24T08:56:35Z</time>
      </trkpt>
      <trkpt lat="43.43976" lon="5.8602">
        <ele>334.2</ele>
        <time>2019-02-24T08:57:10Z</time>
      </trkpt>
      <trkpt lat="43.43978" lon="5.86022">
        <ele>334.2</ele>
        <time>2019-02-24T08:57:44Z</time>
      </trkpt>
      <trkpt lat="43.43977" lon="5.86026">
        <ele>334.2</ele>
        <time>2019-02-24T08:58:05Z</time>
      </trkpt>
      <trkpt lat="43.43972" lon="5.86027">
        <ele>334.2</ele>
        <time>2019-02-24T08:58:23Z</time>
      </trkpt>
      <trkpt lat="43.43974" lon="5.86023">
        <ele>334.2</ele>
        <time>2019-02-24T08:58:25Z</time>
      </trkpt>
      <trkpt lat="43.43975" lon="5.86021">
        <ele>334.2</ele>
        <time>2019-02-24T08:58:26Z</time>
      </trkpt>
      <trkpt lat="43.43978" lon="5.8602">
        <ele>334.2</ele>
        <time>2019-02-24T08:58:27Z</time>
      </trkpt>
      <trkpt lat="43.43985" lon="5.86024">
        <ele>334.2</ele>
        <time>2019-02-24T08:58:30Z</time>
      </trkpt>
      <trkpt lat="43.43988" lon="5.86028">
        <ele>334.2</ele>
        <time>2019-02-24T08:58:31Z</time>
      </trkpt>
      <trkpt lat="43.43995" lon="5.86036">
        <ele>332.75</ele>
        <time>2019-02-24T08:58:33Z</time>
      </trkpt>
      <trkpt lat="43.44021" lon="5.86067">
        <ele>330.83</ele>
        <time>2019-02-24T08:58:39Z</time>
      </trkpt>
      <trkpt lat="43.44024" lon="5.86073">
        <ele>330.83</ele>
        <time>2019-02-24T08:58:40Z</time>
      </trkpt>
      <trkpt lat="43.44027" lon="5.8608">
        <ele>330.83</ele>
        <time>2019-02-24T08:58:41Z</time>
      </trkpt>
      <trkpt lat="43.44028" lon="5.86088">
        <ele>329.87</ele>
        <time>2019-02-24T08:58:42Z</time>
      </trkpt>
      <trkpt lat="43.44028" lon="5.86095">
        <ele>329.87</ele>
        <time>2019-02-24T08:58:43Z</time>
      </trkpt>
      <trkpt lat="43.44029" lon="5.86102">
        <ele>329.87</ele>
        <time>2019-02-24T08:58:44Z</time>
      </trkpt>
      <trkpt lat="43.44029" lon="5.8611">
        <ele>329.87</ele>
        <time>2019-02-24T08:58:45Z</time>
      </trkpt>
      <trkpt lat="43.44029" lon="5.86196">
        <ele>328.91</ele>
        <time>2019-02-24T08:58:56Z</time>
      </trkpt>
      <trkpt lat="43.44039" lon="5.86255">
        <ele>326.02</ele>
        <time>2019-02-24T08:59:02Z</time>
      </trkpt>
      <trkpt lat="43.44041" lon="5.86271">
        <ele>324.58</ele>
        <time>2019-02-24T08:59:04Z</time>
      </trkpt>
      <trkpt lat="43.44046" lon="5.86295">
        <ele>321.7</ele>
        <time>2019-02-24T08:59:11Z</time>
      </trkpt>
      <trkpt lat="43.44049" lon="5.86296">
        <ele>322.18</ele>
        <time>2019-02-24T08:59:12Z</time>
      </trkpt>
      <trkpt lat="43.44052" lon="5.86296">
        <ele>322.18</ele>
        <time>2019-02-24T08:59:13Z</time>
      </trkpt>
      <trkpt lat="43.44055" lon="5.86295">
        <ele>321.7</ele>
        <time>2019-02-24T08:59:14Z</time>
      </trkpt>
      <trkpt lat="43.44059" lon="5.86293">
        <ele>322.18</ele>
        <time>2019-02-24T08:59:15Z</time>
      </trkpt>
      <trkpt lat="43.44147" lon="5.86255">
        <ele>321.7</ele>
        <time>2019-02-24T08:59:31Z</time>
      </trkpt>
      <trkpt lat="43.44232" lon="5.86223">
        <ele>320.26</ele>
        <time>2019-02-24T08:59:46Z</time>
      </trkpt>
      <trkpt lat="43.44311" lon="5.8619">
        <ele>320.26</ele>
        <time>2019-02-24T09:00:01Z</time>
      </trkpt>
      <trkpt lat="43.4437" lon="5.86128">
        <ele>318.81</ele>
        <time>2019-02-24T09:00:13Z</time>
      </trkpt>
      <trkpt lat="43.44394" lon="5.86057">
        <ele>315.45</ele>
        <time>2019-02-24T09:00:21Z</time>
      </trkpt>
      <trkpt lat="43.44419" lon="5.85965">
        <ele>313.05</ele>
        <time>2019-02-24T09:00:32Z</time>
      </trkpt>
      <trkpt lat="43.44422" lon="5.8596">
        <ele>313.05</ele>
        <time>2019-02-24T09:00:33Z</time>
      </trkpt>
      <trkpt lat="43.44425" lon="5.85955">
        <ele>313.05</ele>
        <time>2019-02-24T09:00:34Z</time>
      </trkpt>
      <trkpt lat="43.44429" lon="5.85952">
        <ele>313.53</ele>
        <time>2019-02-24T09:00:35Z</time>
      </trkpt>
      <trkpt lat="43.44434" lon="5.8595">
        <ele>313.53</ele>
        <time>2019-02-24T09:00:36Z</time>
      </trkpt>
      <trkpt lat="43.44439" lon="5.85952">
        <ele>313.05</ele>
        <time>2019-02-24T09:00:37Z</time>
      </trkpt>
      <trkpt lat="43.44444" lon="5.85954">
        <ele>313.05</ele>
        <time>2019-02-24T09:00:38Z</time>
      </trkpt>
      <trkpt lat="43.4445" lon="5.85958">
        <ele>313.05</ele>
        <time>2019-02-24T09:00:39Z</time>
      </trkpt>
      <trkpt lat="43.44535" lon="5.85992">
        <ele>310.16</ele>
        <time>2019-02-24T09:00:51Z</time>
      </trkpt>
      <trkpt lat="43.44632" lon="5.86021">
        <ele>306.32</ele>
        <time>2019-02-24T09:01:05Z</time>
      </trkpt>
      <trkpt lat="43.44637" lon="5.86021">
        <ele>305.84</ele>
        <time>2019-02-24T09:01:07Z</time>
      </trkpt>
      <trkpt lat="43.44638" lon="5.86016">
        <ele>305.36</ele>
        <time>2019-02-24T09:01:17Z</time>
      </trkpt>
      <trkpt lat="43.44635" lon="5.86016">
        <ele>305.84</ele>
        <time>2019-02-24T09:01:36Z</time>
      </trkpt>
      <trkpt lat="43.44636" lon="5.86015">
        <ele>305.84</ele>
        <time>2019-02-24T09:02:07Z</time>
      </trkpt>
      <trkpt lat="43.44635" lon="5.86018">
        <ele>305.36</ele>
        <time>2019-02-24T09:02:28Z</time>
      </trkpt>
      <trkpt lat="43.44635" lon="5.8602">
        <ele>305.36</ele>
        <time>2019-02-24T09:02:29Z</time>
      </trkpt>
      <trkpt lat="43.44636" lon="5.86022">
        <ele>305.36</ele>
        <time>2019-02-24T09:02:30Z</time>
      </trkpt>
      <trkpt lat="43.44638" lon="5.86025">
        <ele>305.36</ele>
        <time>2019-02-24T09:02:31Z</time>
      </trkpt>
      <trkpt lat="43.44641" lon="5.86027">
        <ele>305.36</ele>
        <time>2019-02-24T09:02:32Z</time>
      </trkpt>
      <trkpt lat="43.44644" lon="5.86028">
        <ele>305.36</ele>
        <time>2019-02-24T09:02:33Z</time>
      </trkpt>
      <trkpt lat="43.44649" lon="5.86029">
        <ele>305.36</ele>
        <time>2019-02-24T09:02:34Z</time>
      </trkpt>
      <trkpt lat="43.44658" lon="5.86032">
        <ele>305.36</ele>
        <time>2019-02-24T09:02:36Z</time>
      </trkpt>
      <trkpt lat="43.44684" lon="5.86043">
        <ele>303.91</ele>
        <time>2019-02-24T09:02:41Z</time>
      </trkpt>
      <trkpt lat="43.4478" lon="5.86078">
        <ele>302.47</ele>
        <time>2019-02-24T09:02:57Z</time>
      </trkpt>
      <trkpt lat="43.44808" lon="5.86078">
        <ele>301.51</ele>
        <time>2019-02-24T09:03:02Z</time>
      </trkpt>
      <trkpt lat="43.44814" lon="5.86081">
        <ele>301.03</ele>
        <time>2019-02-24T09:03:03Z</time>
      </trkpt>
      <trkpt lat="43.44818" lon="5.86085">
        <ele>301.03</ele>
        <time>2019-02-24T09:03:04Z</time>
      </trkpt>
      <trkpt lat="43.44821" lon="5.86091">
        <ele>301.03</ele>
        <time>2019-02-24T09:03:05Z</time>
      </trkpt>
      <trkpt lat="43.44822" lon="5.86099">
        <ele>301.03</ele>
        <time>2019-02-24T09:03:06Z</time>
      </trkpt>
      <trkpt lat="43.44823" lon="5.86106">
        <ele>301.03</ele>
        <time>2019-02-24T09:03:07Z</time>
      </trkpt>
      <trkpt lat="43.44825" lon="5.86113">
        <ele>301.03</ele>
        <time>2019-02-24T09:03:08Z</time>
      </trkpt>
      <trkpt lat="43.44828" lon="5.86118">
        <ele>301.03</ele>
        <time>2019-02-24T09:03:09Z</time>
      </trkpt>
      <trkpt lat="43.44832" lon="5.86123">
        <ele>301.03</ele>
        <time>2019-02-24T09:03:10Z</time>
      </trkpt>
      <trkpt lat="43.44835" lon="5.86129">
        <ele>301.03</ele>
        <time>2019-02-24T09:03:11Z</time>
      </trkpt>
      <trkpt lat="43.44837" lon="5.86136">
        <ele>301.03</ele>
        <time>2019-02-24T09:03:12Z</time>
      </trkpt>
      <trkpt lat="43.44837" lon="5.86143">
        <ele>300.07</ele>
        <time>2019-02-24T09:03:13Z</time>
      </trkpt>
      <trkpt lat="43.44835" lon="5.86149">
        <ele>300.07</ele>
        <time>2019-02-24T09:03:14Z</time>
      </trkpt>
      <trkpt lat="43.44832" lon="5.86156">
        <ele>300.07</ele>
        <time>2019-02-24T09:03:15Z</time>
      </trkpt>
      <trkpt lat="43.44829" lon="5.86162">
        <ele>300.07</ele>
        <time>2019-02-24T09:03:16Z</time>
      </trkpt>
      <trkpt lat="43.44822" lon="5.86174">
        <ele>300.07</ele>
        <time>2019-02-24T09:03:18Z</time>
      </trkpt>
      <trkpt lat="43.44818" lon="5.8618">
        <ele>300.07</ele>
        <time>2019-02-24T09:03:19Z</time>
      </trkpt>
      <trkpt lat="43.4481" lon="5.8619">
        <ele>300.07</ele>
        <time>2019-02-24T09:03:21Z</time>
      </trkpt>
      <trkpt lat="43.44807" lon="5.86196">
        <ele>300.07</ele>
        <time>2019-02-24T09:03:22Z</time>
      </trkpt>
      <trkpt lat="43.44805" lon="5.86201">
        <ele>300.07</ele>
        <time>2019-02-24T09:03:23Z</time>
      </trkpt>
      <trkpt lat="43.44805" lon="5.86206">
        <ele>300.55</ele>
        <time>2019-02-24T09:03:24Z</time>
      </trkpt>
      <trkpt lat="43.44807" lon="5.86212">
        <ele>300.55</ele>
        <time>2019-02-24T09:03:25Z</time>
      </trkpt>
      <trkpt lat="43.44811" lon="5.86216">
        <ele>300.55</ele>
        <time>2019-02-24T09:03:26Z</time>
      </trkpt>
      <trkpt lat="43.44815" lon="5.8622">
        <ele>300.55</ele>
        <time>2019-02-24T09:03:27Z</time>
      </trkpt>
      <trkpt lat="43.44845" lon="5.86263">
        <ele>298.63</ele>
        <time>2019-02-24T09:03:35Z</time>
      </trkpt>
      <trkpt lat="43.44848" lon="5.8627">
        <ele>298.15</ele>
        <time>2019-02-24T09:03:36Z</time>
      </trkpt>
      <trkpt lat="43.44849" lon="5.86276">
        <ele>298.15</ele>
        <time>2019-02-24T09:03:37Z</time>
      </trkpt>
      <trkpt lat="43.4485" lon="5.86282">
        <ele>297.67</ele>
        <time>2019-02-24T09:03:38Z</time>
      </trkpt>
      <trkpt lat="43.44852" lon="5.86288">
        <ele>297.67</ele>
        <time>2019-02-24T09:03:39Z</time>
      </trkpt>
      <trkpt lat="43.44856" lon="5.86295">
        <ele>297.67</ele>
        <time>2019-02-24T09:03:40Z</time>
      </trkpt>
      <trkpt lat="43.44859" lon="5.86297">
        <ele>297.67</ele>
        <time>2019-02-24T09:03:41Z</time>
      </trkpt>
      <trkpt lat="43.44864" lon="5.86303">
        <ele>297.67</ele>
        <time>2019-02-24T09:03:42Z</time>
      </trkpt>
      <trkpt lat="43.44876" lon="5.86318">
        <ele>296.7</ele>
        <time>2019-02-24T09:03:45Z</time>
      </trkpt>
      <trkpt lat="43.44882" lon="5.86322">
        <ele>296.7</ele>
        <time>2019-02-24T09:03:46Z</time>
      </trkpt>
      <trkpt lat="43.44955" lon="5.8637">
        <ele>296.22</ele>
        <time>2019-02-24T09:04:00Z</time>
      </trkpt>
      <trkpt lat="43.44982" lon="5.86392">
        <ele>294.78</ele>
        <time>2019-02-24T09:04:06Z</time>
      </trkpt>
      <trkpt lat="43.44986" lon="5.86398">
        <ele>294.78</ele>
        <time>2019-02-24T09:04:07Z</time>
      </trkpt>
      <trkpt lat="43.44989" lon="5.86405">
        <ele>294.78</ele>
        <time>2019-02-24T09:04:08Z</time>
      </trkpt>
      <trkpt lat="43.44996" lon="5.86425">
        <ele>294.78</ele>
        <time>2019-02-24T09:04:11Z</time>
      </trkpt>
      <trkpt lat="43.45" lon="5.86432">
        <ele>294.78</ele>
        <time>2019-02-24T09:04:12Z</time>
      </trkpt>
      <trkpt lat="43.45062" lon="5.86519">
        <ele>292.86</ele>
        <time>2019-02-24T09:04:28Z</time>
      </trkpt>
      <trkpt lat="43.45066" lon="5.86524">
        <ele>292.86</ele>
        <time>2019-02-24T09:04:29Z</time>
      </trkpt>
      <trkpt lat="43.45113" lon="5.86563">
        <ele>290.94</ele>
        <time>2019-02-24T09:04:38Z</time>
      </trkpt>
      <trkpt lat="43.45118" lon="5.86569">
        <ele>290.94</ele>
        <time>2019-02-24T09:04:39Z</time>
      </trkpt>
      <trkpt lat="43.45122" lon="5.86577">
        <ele>290.94</ele>
        <time>2019-02-24T09:04:40Z</time>
      </trkpt>
      <trkpt lat="43.45124" lon="5.86585">
        <ele>290.46</ele>
        <time>2019-02-24T09:04:41Z</time>
      </trkpt>
      <trkpt lat="43.45126" lon="5.86593">
        <ele>289.97</ele>
        <time>2019-02-24T09:04:42Z</time>
      </trkpt>
      <trkpt lat="43.45128" lon="5.86602">
        <ele>290.46</ele>
        <time>2019-02-24T09:04:43Z</time>
      </trkpt>
      <trkpt lat="43.45131" lon="5.86611">
        <ele>290.46</ele>
        <time>2019-02-24T09:04:44Z</time>
      </trkpt>
      <trkpt lat="43.45131" lon="5.86621">
        <ele>289.97</ele>
        <time>2019-02-24T09:04:45Z</time>
      </trkpt>
      <trkpt lat="43.45131" lon="5.86628">
        <ele>289.97</ele>
        <time>2019-02-24T09:04:46Z</time>
      </trkpt>
      <trkpt lat="43.45129" lon="5.86638">
        <ele>289.97</ele>
        <time>2019-02-24T09:04:47Z</time>
      </trkpt>
      <trkpt lat="43.45126" lon="5.86645">
        <ele>289.97</ele>
        <time>2019-02-24T09:04:48Z</time>
      </trkpt>
      <trkpt lat="43.45123" lon="5.86652">
        <ele>289.97</ele>
        <time>2019-02-24T09:04:49Z</time>
      </trkpt>
      <trkpt lat="43.45119" lon="5.86658">
        <ele>289.97</ele>
        <time>2019-02-24T09:04:50Z</time>
      </trkpt>
      <trkpt lat="43.45059" lon="5.8675">
        <ele>289.49</ele>
        <time>2019-02-24T09:05:07Z</time>
      </trkpt>
      <trkpt lat="43.4501" lon="5.8681">
        <ele>290.94</ele>
        <time>2019-02-24T09:05:22Z</time>
      </trkpt>
      <trkpt lat="43.4498" lon="5.86871">
        <ele>292.86</ele>
        <time>2019-02-24T09:05:36Z</time>
      </trkpt>
      <trkpt lat="43.44972" lon="5.86914">
        <ele>291.9</ele>
        <time>2019-02-24T09:05:42Z</time>
      </trkpt>
      <trkpt lat="43.44968" lon="5.86941">
        <ele>291.42</ele>
        <time>2019-02-24T09:05:46Z</time>
      </trkpt>
      <trkpt lat="43.44968" lon="5.86948">
        <ele>291.42</ele>
        <time>2019-02-24T09:05:47Z</time>
      </trkpt>
      <trkpt lat="43.44973" lon="5.86978">
        <ele>290.94</ele>
        <time>2019-02-24T09:05:52Z</time>
      </trkpt>
      <trkpt lat="43.44974" lon="5.86985">
        <ele>289.97</ele>
        <time>2019-02-24T09:05:53Z</time>
      </trkpt>
      <trkpt lat="43.44981" lon="5.8702">
        <ele>289.01</ele>
        <time>2019-02-24T09:05:58Z</time>
      </trkpt>
      <trkpt lat="43.44981" lon="5.87028">
        <ele>289.01</ele>
        <time>2019-02-24T09:05:59Z</time>
      </trkpt>
      <trkpt lat="43.4498" lon="5.87035">
        <ele>289.01</ele>
        <time>2019-02-24T09:06:00Z</time>
      </trkpt>
      <trkpt lat="43.44976" lon="5.87041">
        <ele>288.05</ele>
        <time>2019-02-24T09:06:01Z</time>
      </trkpt>
      <trkpt lat="43.44971" lon="5.87047">
        <ele>288.05</ele>
        <time>2019-02-24T09:06:02Z</time>
      </trkpt>
      <trkpt lat="43.44966" lon="5.87051">
        <ele>287.57</ele>
        <time>2019-02-24T09:06:03Z</time>
      </trkpt>
      <trkpt lat="43.44917" lon="5.87088">
        <ele>287.09</ele>
        <time>2019-02-24T09:06:12Z</time>
      </trkpt>
      <trkpt lat="43.44913" lon="5.87094">
        <ele>287.09</ele>
        <time>2019-02-24T09:06:13Z</time>
      </trkpt>
      <trkpt lat="43.4491" lon="5.871">
        <ele>287.09</ele>
        <time>2019-02-24T09:06:14Z</time>
      </trkpt>
      <trkpt lat="43.44908" lon="5.87106">
        <ele>287.09</ele>
        <time>2019-02-24T09:06:15Z</time>
      </trkpt>
      <trkpt lat="43.44907" lon="5.87113">
        <ele>287.09</ele>
        <time>2019-02-24T09:06:16Z</time>
      </trkpt>
      <trkpt lat="43.44906" lon="5.87119">
        <ele>287.09</ele>
        <time>2019-02-24T09:06:17Z</time>
      </trkpt>
      <trkpt lat="43.44906" lon="5.87127">
        <ele>287.09</ele>
        <time>2019-02-24T09:06:18Z</time>
      </trkpt>
      <trkpt lat="43.44903" lon="5.87206">
        <ele>286.13</ele>
        <time>2019-02-24T09:06:28Z</time>
      </trkpt>
      <trkpt lat="43.44888" lon="5.87271">
        <ele>286.13</ele>
        <time>2019-02-24T09:06:39Z</time>
      </trkpt>
      <trkpt lat="43.44886" lon="5.87276">
        <ele>286.13</ele>
        <time>2019-02-24T09:06:40Z</time>
      </trkpt>
      <trkpt lat="43.44857" lon="5.87319">
        <ele>285.17</ele>
        <time>2019-02-24T09:06:48Z</time>
      </trkpt>
      <trkpt lat="43.44852" lon="5.87324">
        <ele>285.17</ele>
        <time>2019-02-24T09:06:49Z</time>
      </trkpt>
      <trkpt lat="43.44846" lon="5.87328">
        <ele>284.69</ele>
        <time>2019-02-24T09:06:50Z</time>
      </trkpt>
      <trkpt lat="43.44839" lon="5.8733">
        <ele>283.73</ele>
        <time>2019-02-24T09:06:51Z</time>
      </trkpt>
      <trkpt lat="43.44833" lon="5.87331">
        <ele>283.25</ele>
        <time>2019-02-24T09:06:52Z</time>
      </trkpt>
      <trkpt lat="43.44827" lon="5.87333">
        <ele>283.25</ele>
        <time>2019-02-24T09:06:53Z</time>
      </trkpt>
      <trkpt lat="43.44821" lon="5.87336">
        <ele>282.77</ele>
        <time>2019-02-24T09:06:54Z</time>
      </trkpt>
      <trkpt lat="43.44815" lon="5.87341">
        <ele>282.77</ele>
        <time>2019-02-24T09:06:55Z</time>
      </trkpt>
      <trkpt lat="43.44811" lon="5.87348">
        <ele>282.77</ele>
        <time>2019-02-24T09:06:56Z</time>
      </trkpt>
      <trkpt lat="43.44807" lon="5.87356">
        <ele>282.28</ele>
        <time>2019-02-24T09:06:57Z</time>
      </trkpt>
      <trkpt lat="43.44803" lon="5.87363">
        <ele>282.28</ele>
        <time>2019-02-24T09:06:58Z</time>
      </trkpt>
      <trkpt lat="43.44763" lon="5.87455">
        <ele>280.36</ele>
        <time>2019-02-24T09:07:11Z</time>
      </trkpt>
      <trkpt lat="43.44761" lon="5.87461">
        <ele>279.88</ele>
        <time>2019-02-24T09:07:12Z</time>
      </trkpt>
      <trkpt lat="43.4476" lon="5.87467">
        <ele>279.88</ele>
        <time>2019-02-24T09:07:13Z</time>
      </trkpt>
      <trkpt lat="43.44761" lon="5.87474">
        <ele>279.88</ele>
        <time>2019-02-24T09:07:14Z</time>
      </trkpt>
      <trkpt lat="43.44764" lon="5.87481">
        <ele>279.88</ele>
        <time>2019-02-24T09:07:15Z</time>
      </trkpt>
      <trkpt lat="43.44766" lon="5.87484">
        <ele>279.88</ele>
        <time>2019-02-24T09:07:16Z</time>
      </trkpt>
      <trkpt lat="43.44769" lon="5.87489">
        <ele>279.88</ele>
        <time>2019-02-24T09:07:17Z</time>
      </trkpt>
      <trkpt lat="43.44794" lon="5.87528">
        <ele>280.36</ele>
        <time>2019-02-24T09:07:24Z</time>
      </trkpt>
      <trkpt lat="43.44796" lon="5.87535">
        <ele>279.88</ele>
        <time>2019-02-24T09:07:25Z</time>
      </trkpt>
      <trkpt lat="43.44797" lon="5.87542">
        <ele>279.88</ele>
        <time>2019-02-24T09:07:26Z</time>
      </trkpt>
      <trkpt lat="43.44812" lon="5.87616">
        <ele>279.88</ele>
        <time>2019-02-24T09:07:37Z</time>
      </trkpt>
      <trkpt lat="43.44815" lon="5.87621">
        <ele>279.88</ele>
        <time>2019-02-24T09:07:38Z</time>
      </trkpt>
      <trkpt lat="43.44819" lon="5.87626">
        <ele>279.88</ele>
        <time>2019-02-24T09:07:39Z</time>
      </trkpt>
      <trkpt lat="43.44823" lon="5.87629">
        <ele>279.88</ele>
        <time>2019-02-24T09:07:40Z</time>
      </trkpt>
      <trkpt lat="43.44828" lon="5.87631">
        <ele>279.88</ele>
        <time>2019-02-24T09:07:41Z</time>
      </trkpt>
      <trkpt lat="43.44833" lon="5.87632">
        <ele>279.88</ele>
        <time>2019-02-24T09:07:42Z</time>
      </trkpt>
      <trkpt lat="43.44838" lon="5.87633">
        <ele>279.88</ele>
        <time>2019-02-24T09:07:43Z</time>
      </trkpt>
      <trkpt lat="43.44865" lon="5.87643">
        <ele>279.4</ele>
        <time>2019-02-24T09:07:50Z</time>
      </trkpt>
      <trkpt lat="43.44866" lon="5.87649">
        <ele>279.4</ele>
        <time>2019-02-24T09:07:51Z</time>
      </trkpt>
      <trkpt lat="43.44865" lon="5.87654">
        <ele>279.4</ele>
        <time>2019-02-24T09:07:52Z</time>
      </trkpt>
      <trkpt lat="43.44864" lon="5.87659">
        <ele>279.4</ele>
        <time>2019-02-24T09:07:53Z</time>
      </trkpt>
      <trkpt lat="43.44862" lon="5.87664">
        <ele>279.4</ele>
        <time>2019-02-24T09:07:54Z</time>
      </trkpt>
      <trkpt lat="43.44839" lon="5.8775">
        <ele>281.32</ele>
        <time>2019-02-24T09:08:10Z</time>
      </trkpt>
      <trkpt lat="43.44838" lon="5.87756">
        <ele>281.32</ele>
        <time>2019-02-24T09:08:11Z</time>
      </trkpt>
      <trkpt lat="43.44838" lon="5.87762">
        <ele>281.32</ele>
        <time>2019-02-24T09:08:12Z</time>
      </trkpt>
      <trkpt lat="43.44839" lon="5.87769">
        <ele>281.32</ele>
        <time>2019-02-24T09:08:13Z</time>
      </trkpt>
      <trkpt lat="43.44839" lon="5.87775">
        <ele>281.32</ele>
        <time>2019-02-24T09:08:14Z</time>
      </trkpt>
      <trkpt lat="43.44844" lon="5.87822">
        <ele>279.88</ele>
        <time>2019-02-24T09:08:21Z</time>
      </trkpt>
      <trkpt lat="43.44828" lon="5.87923">
        <ele>279.88</ele>
        <time>2019-02-24T09:08:37Z</time>
      </trkpt>
      <trkpt lat="43.44813" lon="5.88031">
        <ele>279.88</ele>
        <time>2019-02-24T09:08:55Z</time>
      </trkpt>
      <trkpt lat="43.44812" lon="5.88042">
        <ele>281.32</ele>
        <time>2019-02-24T09:08:57Z</time>
      </trkpt>
      <trkpt lat="43.44803" lon="5.88151">
        <ele>282.28</ele>
        <time>2019-02-24T09:09:18Z</time>
      </trkpt>
      <trkpt lat="43.44801" lon="5.88162">
        <ele>282.28</ele>
        <time>2019-02-24T09:09:20Z</time>
      </trkpt>
      <trkpt lat="43.44799" lon="5.88168">
        <ele>282.28</ele>
        <time>2019-02-24T09:09:21Z</time>
      </trkpt>
      <trkpt lat="43.44797" lon="5.88173">
        <ele>282.28</ele>
        <time>2019-02-24T09:09:22Z</time>
      </trkpt>
      <trkpt lat="43.44791" lon="5.88189">
        <ele>282.28</ele>
        <time>2019-02-24T09:09:25Z</time>
      </trkpt>
      <trkpt lat="43.4478" lon="5.88208">
        <ele>282.77</ele>
        <time>2019-02-24T09:09:29Z</time>
      </trkpt>
      <trkpt lat="43.44744" lon="5.88273">
        <ele>283.25</ele>
        <time>2019-02-24T09:09:46Z</time>
      </trkpt>
      <trkpt lat="43.4474" lon="5.88282">
        <ele>283.73</ele>
        <time>2019-02-24T09:09:48Z</time>
      </trkpt>
      <trkpt lat="43.44738" lon="5.88288">
        <ele>283.73</ele>
        <time>2019-02-24T09:09:49Z</time>
      </trkpt>
      <trkpt lat="43.44737" lon="5.88294">
        <ele>283.73</ele>
        <time>2019-02-24T09:09:50Z</time>
      </trkpt>
      <trkpt lat="43.44737" lon="5.883">
        <ele>283.73</ele>
        <time>2019-02-24T09:09:51Z</time>
      </trkpt>
      <trkpt lat="43.44738" lon="5.88306">
        <ele>283.73</ele>
        <time>2019-02-24T09:09:52Z</time>
      </trkpt>
      <trkpt lat="43.4474" lon="5.88312">
        <ele>283.73</ele>
        <time>2019-02-24T09:09:53Z</time>
      </trkpt>
      <trkpt lat="43.44743" lon="5.88317">
        <ele>283.73</ele>
        <time>2019-02-24T09:09:54Z</time>
      </trkpt>
      <trkpt lat="43.44746" lon="5.8832">
        <ele>283.73</ele>
        <time>2019-02-24T09:09:55Z</time>
      </trkpt>
      <trkpt lat="43.44749" lon="5.88323">
        <ele>283.73</ele>
        <time>2019-02-24T09:09:56Z</time>
      </trkpt>
      <trkpt lat="43.44753" lon="5.88326">
        <ele>284.21</ele>
        <time>2019-02-24T09:09:57Z</time>
      </trkpt>
      <trkpt lat="43.44768" lon="5.8835">
        <ele>287.09</ele>
        <time>2019-02-24T09:10:04Z</time>
      </trkpt>
      <trkpt lat="43.44768" lon="5.88355">
        <ele>287.57</ele>
        <time>2019-02-24T09:10:05Z</time>
      </trkpt>
      <trkpt lat="43.44767" lon="5.88359">
        <ele>287.57</ele>
        <time>2019-02-24T09:10:06Z</time>
      </trkpt>
      <trkpt lat="43.44766" lon="5.88363">
        <ele>288.05</ele>
        <time>2019-02-24T09:10:07Z</time>
      </trkpt>
      <trkpt lat="43.44764" lon="5.88368">
        <ele>288.53</ele>
        <time>2019-02-24T09:10:08Z</time>
      </trkpt>
      <trkpt lat="43.44762" lon="5.88372">
        <ele>288.53</ele>
        <time>2019-02-24T09:10:09Z</time>
      </trkpt>
      <trkpt lat="43.4476" lon="5.88375">
        <ele>289.49</ele>
        <time>2019-02-24T09:10:10Z</time>
      </trkpt>
      <trkpt lat="43.44755" lon="5.8839">
        <ele>289.97</ele>
        <time>2019-02-24T09:10:14Z</time>
      </trkpt>
      <trkpt lat="43.44755" lon="5.88393">
        <ele>290.46</ele>
        <time>2019-02-24T09:10:15Z</time>
      </trkpt>
      <trkpt lat="43.44756" lon="5.88396">
        <ele>290.46</ele>
        <time>2019-02-24T09:10:16Z</time>
      </trkpt>
      <trkpt lat="43.44757" lon="5.88398">
        <ele>290.94</ele>
        <time>2019-02-24T09:10:17Z</time>
      </trkpt>
      <trkpt lat="43.44759" lon="5.88401">
        <ele>290.94</ele>
        <time>2019-02-24T09:10:18Z</time>
      </trkpt>
      <trkpt lat="43.4476" lon="5.88404">
        <ele>291.42</ele>
        <time>2019-02-24T09:10:19Z</time>
      </trkpt>
      <trkpt lat="43.44761" lon="5.88408">
        <ele>291.42</ele>
        <time>2019-02-24T09:10:20Z</time>
      </trkpt>
      <trkpt lat="43.44761" lon="5.88412">
        <ele>291.42</ele>
        <time>2019-02-24T09:10:21Z</time>
      </trkpt>
      <trkpt lat="43.44763" lon="5.88478">
        <ele>291.9</ele>
        <time>2019-02-24T09:10:35Z</time>
      </trkpt>
      <trkpt lat="43.44763" lon="5.8854">
        <ele>291.9</ele>
        <time>2019-02-24T09:10:47Z</time>
      </trkpt>
      <trkpt lat="43.44736" lon="5.88628">
        <ele>292.38</ele>
        <time>2019-02-24T09:11:04Z</time>
      </trkpt>
      <trkpt lat="43.4472" lon="5.88674">
        <ele>292.38</ele>
        <time>2019-02-24T09:11:17Z</time>
      </trkpt>
      <trkpt lat="43.44711" lon="5.88698">
        <ele>293.82</ele>
        <time>2019-02-24T09:11:23Z</time>
      </trkpt>
      <trkpt lat="43.44709" lon="5.887">
        <ele>294.78</ele>
        <time>2019-02-24T09:11:33Z</time>
      </trkpt>
      <trkpt lat="43.4471" lon="5.88697">
        <ele>294.78</ele>
        <time>2019-02-24T09:11:40Z</time>
      </trkpt>
      <trkpt lat="43.44711" lon="5.88694">
        <ele>294.78</ele>
        <time>2019-02-24T09:11:41Z</time>
      </trkpt>
      <trkpt lat="43.4472" lon="5.88672">
        <ele>293.34</ele>
        <time>2019-02-24T09:11:45Z</time>
      </trkpt>
      <trkpt lat="43.44731" lon="5.88638">
        <ele>291.9</ele>
        <time>2019-02-24T09:11:51Z</time>
      </trkpt>
      <trkpt lat="43.44727" lon="5.88634">
        <ele>291.9</ele>
        <time>2019-02-24T09:11:52Z</time>
      </trkpt>
      <trkpt lat="43.44724" lon="5.88634">
        <ele>291.42</ele>
        <time>2019-02-24T09:11:53Z</time>
      </trkpt>
      <trkpt lat="43.44687" lon="5.88632">
        <ele>290.46</ele>
        <time>2019-02-24T09:12:05Z</time>
      </trkpt>
      <trkpt lat="43.44675" lon="5.88629">
        <ele>289.97</ele>
        <time>2019-02-24T09:12:08Z</time>
      </trkpt>
      <trkpt lat="43.44671" lon="5.88626">
        <ele>289.49</ele>
        <time>2019-02-24T09:12:09Z</time>
      </trkpt>
      <trkpt lat="43.44605" lon="5.88573">
        <ele>288.05</ele>
        <time>2019-02-24T09:12:25Z</time>
      </trkpt>
      <trkpt lat="43.44568" lon="5.88549">
        <ele>287.57</ele>
        <time>2019-02-24T09:12:37Z</time>
      </trkpt>
      <trkpt lat="43.44567" lon="5.88551">
        <ele>287.57</ele>
        <time>2019-02-24T09:12:38Z</time>
      </trkpt>
      <trkpt lat="43.44566" lon="5.88553">
        <ele>287.57</ele>
        <time>2019-02-24T09:12:39Z</time>
      </trkpt>
      <trkpt lat="43.44562" lon="5.88568">
        <ele>289.01</ele>
        <time>2019-02-24T09:12:43Z</time>
      </trkpt>
      <trkpt lat="43.44566" lon="5.88598">
        <ele>292.38</ele>
        <time>2019-02-24T09:12:52Z</time>
      </trkpt>
      <trkpt lat="43.44585" lon="5.88628">
        <ele>295.74</ele>
        <time>2019-02-24T09:13:05Z</time>
      </trkpt>
      <trkpt lat="43.44593" lon="5.88637">
        <ele>296.22</ele>
        <time>2019-02-24T09:13:09Z</time>
      </trkpt>
      <trkpt lat="43.44594" lon="5.88641">
        <ele>297.18</ele>
        <time>2019-02-24T09:13:10Z</time>
      </trkpt>
      <trkpt lat="43.44594" lon="5.88645">
        <ele>297.18</ele>
        <time>2019-02-24T09:13:11Z</time>
      </trkpt>
      <trkpt lat="43.44594" lon="5.88649">
        <ele>297.67</ele>
        <time>2019-02-24T09:13:12Z</time>
      </trkpt>
      <trkpt lat="43.44594" lon="5.88653">
        <ele>298.15</ele>
        <time>2019-02-24T09:13:13Z</time>
      </trkpt>
      <trkpt lat="43.44592" lon="5.88655">
        <ele>298.15</ele>
        <time>2019-02-24T09:13:14Z</time>
      </trkpt>
      <trkpt lat="43.44592" lon="5.88659">
        <ele>298.63</ele>
        <time>2019-02-24T09:13:15Z</time>
      </trkpt>
      <trkpt lat="43.44591" lon="5.88661">
        <ele>298.63</ele>
        <time>2019-02-24T09:13:16Z</time>
      </trkpt>
      <trkpt lat="43.44589" lon="5.88663">
        <ele>299.11</ele>
        <time>2019-02-24T09:13:17Z</time>
      </trkpt>
      <trkpt lat="43.44587" lon="5.88664">
        <ele>299.11</ele>
        <time>2019-02-24T09:13:18Z</time>
      </trkpt>
      <trkpt lat="43.44585" lon="5.88665">
        <ele>299.11</ele>
        <time>2019-02-24T09:13:19Z</time>
      </trkpt>
      <trkpt lat="43.44582" lon="5.88665">
        <ele>299.11</ele>
        <time>2019-02-24T09:13:20Z</time>
      </trkpt>
      <trkpt lat="43.44549" lon="5.88674">
        <ele>300.07</ele>
        <time>2019-02-24T09:13:34Z</time>
      </trkpt>
      <trkpt lat="43.44514" lon="5.88711">
        <ele>297.18</ele>
        <time>2019-02-24T09:13:46Z</time>
      </trkpt>
      <trkpt lat="43.4451" lon="5.88714">
        <ele>295.74</ele>
        <time>2019-02-24T09:13:47Z</time>
      </trkpt>
      <trkpt lat="43.44505" lon="5.88716">
        <ele>295.26</ele>
        <time>2019-02-24T09:13:48Z</time>
      </trkpt>
      <trkpt lat="43.44439" lon="5.88744">
        <ele>292.38</ele>
        <time>2019-02-24T09:13:58Z</time>
      </trkpt>
      <trkpt lat="43.44425" lon="5.88752">
        <ele>291.9</ele>
        <time>2019-02-24T09:14:00Z</time>
      </trkpt>
      <trkpt lat="43.44419" lon="5.88757">
        <ele>291.9</ele>
        <time>2019-02-24T09:14:01Z</time>
      </trkpt>
      <trkpt lat="43.44414" lon="5.88763">
        <ele>291.9</ele>
        <time>2019-02-24T09:14:02Z</time>
      </trkpt>
      <trkpt lat="43.44408" lon="5.88769">
        <ele>291.42</ele>
        <time>2019-02-24T09:14:03Z</time>
      </trkpt>
      <trkpt lat="43.44403" lon="5.88777">
        <ele>291.42</ele>
        <time>2019-02-24T09:14:04Z</time>
      </trkpt>
      <trkpt lat="43.44387" lon="5.88807">
        <ele>290.46</ele>
        <time>2019-02-24T09:14:08Z</time>
      </trkpt>
      <trkpt lat="43.44385" lon="5.88814">
        <ele>290.46</ele>
        <time>2019-02-24T09:14:09Z</time>
      </trkpt>
      <trkpt lat="43.44382" lon="5.88823">
        <ele>289.97</ele>
        <time>2019-02-24T09:14:10Z</time>
      </trkpt>
      <trkpt lat="43.44377" lon="5.88848">
        <ele>289.49</ele>
        <time>2019-02-24T09:14:13Z</time>
      </trkpt>
      <trkpt lat="43.44363" lon="5.88985">
        <ele>288.05</ele>
        <time>2019-02-24T09:14:30Z</time>
      </trkpt>
      <trkpt lat="43.44338" lon="5.89102">
        <ele>287.09</ele>
        <time>2019-02-24T09:14:47Z</time>
      </trkpt>
      <trkpt lat="43.44312" lon="5.89209">
        <ele>286.61</ele>
        <time>2019-02-24T09:15:03Z</time>
      </trkpt>
      <trkpt lat="43.44304" lon="5.89262">
        <ele>286.13</ele>
        <time>2019-02-24T09:15:11Z</time>
      </trkpt>
      <trkpt lat="43.44302" lon="5.89267">
        <ele>286.13</ele>
        <time>2019-02-24T09:15:12Z</time>
      </trkpt>
      <trkpt lat="43.44299" lon="5.89273">
        <ele>285.65</ele>
        <time>2019-02-24T09:15:13Z</time>
      </trkpt>
      <trkpt lat="43.44296" lon="5.89279">
        <ele>285.65</ele>
        <time>2019-02-24T09:15:14Z</time>
      </trkpt>
      <trkpt lat="43.44293" lon="5.89285">
        <ele>285.65</ele>
        <time>2019-02-24T09:15:15Z</time>
      </trkpt>
      <trkpt lat="43.44286" lon="5.89297">
        <ele>285.17</ele>
        <time>2019-02-24T09:15:17Z</time>
      </trkpt>
      <trkpt lat="43.44253" lon="5.89378">
        <ele>284.21</ele>
        <time>2019-02-24T09:15:29Z</time>
      </trkpt>
      <trkpt lat="43.44237" lon="5.89404">
        <ele>284.21</ele>
        <time>2019-02-24T09:15:34Z</time>
      </trkpt>
      <trkpt lat="43.44234" lon="5.89408">
        <ele>284.21</ele>
        <time>2019-02-24T09:15:35Z</time>
      </trkpt>
      <trkpt lat="43.4423" lon="5.89412">
        <ele>283.25</ele>
        <time>2019-02-24T09:15:36Z</time>
      </trkpt>
      <trkpt lat="43.44226" lon="5.89415">
        <ele>283.25</ele>
        <time>2019-02-24T09:15:37Z</time>
      </trkpt>
      <trkpt lat="43.44221" lon="5.89416">
        <ele>283.25</ele>
        <time>2019-02-24T09:15:38Z</time>
      </trkpt>
      <trkpt lat="43.44216" lon="5.89417">
        <ele>282.77</ele>
        <time>2019-02-24T09:15:39Z</time>
      </trkpt>
      <trkpt lat="43.4421" lon="5.89418">
        <ele>282.77</ele>
        <time>2019-02-24T09:15:40Z</time>
      </trkpt>
      <trkpt lat="43.44205" lon="5.89418">
        <ele>282.77</ele>
        <time>2019-02-24T09:15:41Z</time>
      </trkpt>
      <trkpt lat="43.44187" lon="5.89416">
        <ele>281.8</ele>
        <time>2019-02-24T09:15:44Z</time>
      </trkpt>
      <trkpt lat="43.44151" lon="5.89413">
        <ele>279.88</ele>
        <time>2019-02-24T09:15:50Z</time>
      </trkpt>
      <trkpt lat="43.44145" lon="5.89415">
        <ele>279.4</ele>
        <time>2019-02-24T09:15:51Z</time>
      </trkpt>
      <trkpt lat="43.44139" lon="5.89418">
        <ele>278.92</ele>
        <time>2019-02-24T09:15:52Z</time>
      </trkpt>
      <trkpt lat="43.44133" lon="5.89424">
        <ele>278.92</ele>
        <time>2019-02-24T09:15:53Z</time>
      </trkpt>
      <trkpt lat="43.44128" lon="5.8943">
        <ele>278.92</ele>
        <time>2019-02-24T09:15:54Z</time>
      </trkpt>
      <trkpt lat="43.44123" lon="5.89437">
        <ele>278.92</ele>
        <time>2019-02-24T09:15:55Z</time>
      </trkpt>
      <trkpt lat="43.44111" lon="5.89455">
        <ele>278.44</ele>
        <time>2019-02-24T09:15:58Z</time>
      </trkpt>
      <trkpt lat="43.44107" lon="5.89459">
        <ele>277.48</ele>
        <time>2019-02-24T09:15:59Z</time>
      </trkpt>
      <trkpt lat="43.44099" lon="5.89467">
        <ele>277</ele>
        <time>2019-02-24T09:16:01Z</time>
      </trkpt>
      <trkpt lat="43.44095" lon="5.89472">
        <ele>277</ele>
        <time>2019-02-24T09:16:02Z</time>
      </trkpt>
      <trkpt lat="43.44091" lon="5.89479">
        <ele>276.52</ele>
        <time>2019-02-24T09:16:03Z</time>
      </trkpt>
      <trkpt lat="43.44089" lon="5.89485">
        <ele>276.52</ele>
        <time>2019-02-24T09:16:04Z</time>
      </trkpt>
      <trkpt lat="43.44087" lon="5.89492">
        <ele>276.52</ele>
        <time>2019-02-24T09:16:05Z</time>
      </trkpt>
      <trkpt lat="43.44086" lon="5.89499">
        <ele>276.52</ele>
        <time>2019-02-24T09:16:06Z</time>
      </trkpt>
      <trkpt lat="43.44086" lon="5.89506">
        <ele>276.52</ele>
        <time>2019-02-24T09:16:07Z</time>
      </trkpt>
      <trkpt lat="43.44087" lon="5.89535">
        <ele>276.52</ele>
        <time>2019-02-24T09:16:11Z</time>
      </trkpt>
      <trkpt lat="43.44088" lon="5.89541">
        <ele>276.52</ele>
        <time>2019-02-24T09:16:12Z</time>
      </trkpt>
      <trkpt lat="43.44089" lon="5.89548">
        <ele>276.52</ele>
        <time>2019-02-24T09:16:13Z</time>
      </trkpt>
      <trkpt lat="43.44092" lon="5.89554">
        <ele>276.52</ele>
        <time>2019-02-24T09:16:14Z</time>
      </trkpt>
      <trkpt lat="43.44094" lon="5.89561">
        <ele>276.04</ele>
        <time>2019-02-24T09:16:15Z</time>
      </trkpt>
      <trkpt lat="43.44096" lon="5.89568">
        <ele>276.04</ele>
        <time>2019-02-24T09:16:16Z</time>
      </trkpt>
      <trkpt lat="43.44097" lon="5.89574">
        <ele>276.04</ele>
        <time>2019-02-24T09:16:17Z</time>
      </trkpt>
      <trkpt lat="43.44103" lon="5.89687">
        <ele>275.07</ele>
        <time>2019-02-24T09:16:31Z</time>
      </trkpt>
      <trkpt lat="43.44102" lon="5.89695">
        <ele>275.07</ele>
        <time>2019-02-24T09:16:32Z</time>
      </trkpt>
      <trkpt lat="43.44101" lon="5.89702">
        <ele>275.07</ele>
        <time>2019-02-24T09:16:33Z</time>
      </trkpt>
      <trkpt lat="43.44099" lon="5.89709">
        <ele>275.07</ele>
        <time>2019-02-24T09:16:34Z</time>
      </trkpt>
      <trkpt lat="43.44096" lon="5.89716">
        <ele>274.59</ele>
        <time>2019-02-24T09:16:35Z</time>
      </trkpt>
      <trkpt lat="43.44093" lon="5.89721">
        <ele>274.59</ele>
        <time>2019-02-24T09:16:36Z</time>
      </trkpt>
      <trkpt lat="43.44089" lon="5.89725">
        <ele>274.59</ele>
        <time>2019-02-24T09:16:37Z</time>
      </trkpt>
      <trkpt lat="43.44085" lon="5.8973">
        <ele>274.59</ele>
        <time>2019-02-24T09:16:38Z</time>
      </trkpt>
      <trkpt lat="43.44081" lon="5.89734">
        <ele>274.59</ele>
        <time>2019-02-24T09:16:39Z</time>
      </trkpt>
      <trkpt lat="43.44015" lon="5.898">
        <ele>272.67</ele>
        <time>2019-02-24T09:16:52Z</time>
      </trkpt>
      <trkpt lat="43.44003" lon="5.89812">
        <ele>272.19</ele>
        <time>2019-02-24T09:16:55Z</time>
      </trkpt>
      <trkpt lat="43.43999" lon="5.89815">
        <ele>272.19</ele>
        <time>2019-02-24T09:16:56Z</time>
      </trkpt>
      <trkpt lat="43.43995" lon="5.89816">
        <ele>271.71</ele>
        <time>2019-02-24T09:16:57Z</time>
      </trkpt>
      <trkpt lat="43.43992" lon="5.89816">
        <ele>271.71</ele>
        <time>2019-02-24T09:16:58Z</time>
      </trkpt>
      <trkpt lat="43.43989" lon="5.89817">
        <ele>271.71</ele>
        <time>2019-02-24T09:16:59Z</time>
      </trkpt>
      <trkpt lat="43.43986" lon="5.89817">
        <ele>271.71</ele>
        <time>2019-02-24T09:17:00Z</time>
      </trkpt>
      <trkpt lat="43.43982" lon="5.89816">
        <ele>271.71</ele>
        <time>2019-02-24T09:17:01Z</time>
      </trkpt>
      <trkpt lat="43.43979" lon="5.89814">
        <ele>271.71</ele>
        <time>2019-02-24T09:17:02Z</time>
      </trkpt>
      <trkpt lat="43.43976" lon="5.89812">
        <ele>271.71</ele>
        <time>2019-02-24T09:17:03Z</time>
      </trkpt>
      <trkpt lat="43.43972" lon="5.89809">
        <ele>271.71</ele>
        <time>2019-02-24T09:17:04Z</time>
      </trkpt>
      <trkpt lat="43.43969" lon="5.89806">
        <ele>271.71</ele>
        <time>2019-02-24T09:17:05Z</time>
      </trkpt>
      <trkpt lat="43.43967" lon="5.89804">
        <ele>271.71</ele>
        <time>2019-02-24T09:17:06Z</time>
      </trkpt>
      <trkpt lat="43.43912" lon="5.89783">
        <ele>271.71</ele>
        <time>2019-02-24T09:17:21Z</time>
      </trkpt>
      <trkpt lat="43.43865" lon="5.89767">
        <ele>271.71</ele>
        <time>2019-02-24T09:17:35Z</time>
      </trkpt>
      <trkpt lat="43.4385" lon="5.8976">
        <ele>271.71</ele>
        <time>2019-02-24T09:17:47Z</time>
      </trkpt>
      <trkpt lat="43.43853" lon="5.8976">
        <ele>271.71</ele>
        <time>2019-02-24T09:17:54Z</time>
      </trkpt>
      <trkpt lat="43.43855" lon="5.8976">
        <ele>271.71</ele>
        <time>2019-02-24T09:17:55Z</time>
      </trkpt>
      <trkpt lat="43.43859" lon="5.89761">
        <ele>271.71</ele>
        <time>2019-02-24T09:17:58Z</time>
      </trkpt>
      <trkpt lat="43.4386" lon="5.89762">
        <ele>271.71</ele>
        <time>2019-02-24T09:17:59Z</time>
      </trkpt>
      <trkpt lat="43.4386" lon="5.89766">
        <ele>272.19</ele>
        <time>2019-02-24T09:18:02Z</time>
      </trkpt>
      <trkpt lat="43.43859" lon="5.89768">
        <ele>272.19</ele>
        <time>2019-02-24T09:18:04Z</time>
      </trkpt>
      <trkpt lat="43.43857" lon="5.89768">
        <ele>272.19</ele>
        <time>2019-02-24T09:18:05Z</time>
      </trkpt>
      <trkpt lat="43.43845" lon="5.89778">
        <ele>273.63</ele>
        <time>2019-02-24T09:18:15Z</time>
      </trkpt>
      <trkpt lat="43.43836" lon="5.89788">
        <ele>274.11</ele>
        <time>2019-02-24T09:18:20Z</time>
      </trkpt>
      <trkpt lat="43.43833" lon="5.8979">
        <ele>274.11</ele>
        <time>2019-02-24T09:18:21Z</time>
      </trkpt>
      <trkpt lat="43.43832" lon="5.89792">
        <ele>274.11</ele>
        <time>2019-02-24T09:18:22Z</time>
      </trkpt>
      <trkpt lat="43.43811" lon="5.89838">
        <ele>275.56</ele>
        <time>2019-02-24T09:18:38Z</time>
      </trkpt>
      <trkpt lat="43.43788" lon="5.89887">
        <ele>276.52</ele>
        <time>2019-02-24T09:18:53Z</time>
      </trkpt>
      <trkpt lat="43.43755" lon="5.89962">
        <ele>277</ele>
        <time>2019-02-24T09:19:10Z</time>
      </trkpt>
      <trkpt lat="43.43728" lon="5.89998">
        <ele>277.48</ele>
        <time>2019-02-24T09:19:22Z</time>
      </trkpt>
      <trkpt lat="43.43691" lon="5.90048">
        <ele>278.92</ele>
        <time>2019-02-24T09:19:39Z</time>
      </trkpt>
      <trkpt lat="43.43691" lon="5.90109">
        <ele>280.84</ele>
        <time>2019-02-24T09:19:53Z</time>
      </trkpt>
      <trkpt lat="43.43721" lon="5.90173">
        <ele>282.77</ele>
        <time>2019-02-24T09:20:10Z</time>
      </trkpt>
      <trkpt lat="43.43761" lon="5.90234">
        <ele>282.77</ele>
        <time>2019-02-24T09:20:27Z</time>
      </trkpt>
      <trkpt lat="43.43803" lon="5.90298">
        <ele>283.73</ele>
        <time>2019-02-24T09:20:46Z</time>
      </trkpt>
      <trkpt lat="43.43834" lon="5.90348">
        <ele>285.17</ele>
        <time>2019-02-24T09:21:01Z</time>
      </trkpt>
      <trkpt lat="43.43864" lon="5.90387">
        <ele>284.21</ele>
        <time>2019-02-24T09:21:14Z</time>
      </trkpt>
      <trkpt lat="43.43915" lon="5.90436">
        <ele>282.77</ele>
        <time>2019-02-24T09:21:29Z</time>
      </trkpt>
      <trkpt lat="43.43946" lon="5.90461">
        <ele>280.36</ele>
        <time>2019-02-24T09:21:38Z</time>
      </trkpt>
      <trkpt lat="43.43981" lon="5.90505">
        <ele>277.96</ele>
        <time>2019-02-24T09:21:51Z</time>
      </trkpt>
      <trkpt lat="43.43969" lon="5.90561">
        <ele>276.52</ele>
        <time>2019-02-24T09:22:05Z</time>
      </trkpt>
      <trkpt lat="43.43945" lon="5.9059">
        <ele>276.04</ele>
        <time>2019-02-24T09:22:16Z</time>
      </trkpt>
      <trkpt lat="43.43911" lon="5.90639">
        <ele>276.04</ele>
        <time>2019-02-24T09:22:32Z</time>
      </trkpt>
      <trkpt lat="43.43895" lon="5.9065">
        <ele>277.96</ele>
        <time>2019-02-24T09:22:39Z</time>
      </trkpt>
      <trkpt lat="43.43848" lon="5.90648">
        <ele>279.4</ele>
        <time>2019-02-24T09:22:57Z</time>
      </trkpt>
      <trkpt lat="43.43809" lon="5.90641">
        <ele>282.77</ele>
        <time>2019-02-24T09:23:13Z</time>
      </trkpt>
      <trkpt lat="43.43804" lon="5.90643">
        <ele>283.25</ele>
        <time>2019-02-24T09:23:15Z</time>
      </trkpt>
      <trkpt lat="43.43773" lon="5.90663">
        <ele>286.13</ele>
        <time>2019-02-24T09:23:30Z</time>
      </trkpt>
      <trkpt lat="43.43742" lon="5.90655">
        <ele>289.49</ele>
        <time>2019-02-24T09:23:43Z</time>
      </trkpt>
      <trkpt lat="43.43715" lon="5.90638">
        <ele>291.42</ele>
        <time>2019-02-24T09:23:56Z</time>
      </trkpt>
      <trkpt lat="43.43669" lon="5.90615">
        <ele>292.86</ele>
        <time>2019-02-24T09:24:14Z</time>
      </trkpt>
      <trkpt lat="43.43654" lon="5.90602">
        <ele>293.82</ele>
        <time>2019-02-24T09:24:27Z</time>
      </trkpt>
      <trkpt lat="43.43649" lon="5.90599">
        <ele>293.82</ele>
        <time>2019-02-24T09:25:01Z</time>
      </trkpt>
      <trkpt lat="43.43648" lon="5.90599">
        <ele>294.3</ele>
        <time>2019-02-24T09:25:37Z</time>
      </trkpt>
      <trkpt lat="43.43645" lon="5.90601">
        <ele>294.3</ele>
        <time>2019-02-24T09:26:05Z</time>
      </trkpt>
      <trkpt lat="43.43648" lon="5.90605">
        <ele>294.3</ele>
        <time>2019-02-24T09:26:25Z</time>
      </trkpt>
      <trkpt lat="43.43652" lon="5.90601">
        <ele>294.3</ele>
        <time>2019-02-24T09:26:44Z</time>
      </trkpt>
      <trkpt lat="43.43651" lon="5.90603">
        <ele>294.3</ele>
        <time>2019-02-24T09:27:06Z</time>
      </trkpt>
      <trkpt lat="43.43651" lon="5.90605">
        <ele>294.3</ele>
        <time>2019-02-24T09:27:21Z</time>
      </trkpt>
      <trkpt lat="43.4363" lon="5.90616">
        <ele>292.86</ele>
        <time>2019-02-24T09:27:32Z</time>
      </trkpt>
      <trkpt lat="43.43597" lon="5.90605">
        <ele>290.94</ele>
        <time>2019-02-24T09:27:43Z</time>
      </trkpt>
      <trkpt lat="43.43586" lon="5.90616">
        <ele>290.94</ele>
        <time>2019-02-24T09:27:49Z</time>
      </trkpt>
      <trkpt lat="43.43587" lon="5.90627">
        <ele>290.94</ele>
        <time>2019-02-24T09:27:53Z</time>
      </trkpt>
      <trkpt lat="43.43589" lon="5.90628">
        <ele>290.94</ele>
        <time>2019-02-24T09:27:54Z</time>
      </trkpt>
      <trkpt lat="43.4359" lon="5.9063">
        <ele>290.94</ele>
        <time>2019-02-24T09:27:55Z</time>
      </trkpt>
      <trkpt lat="43.43592" lon="5.90631">
        <ele>290.94</ele>
        <time>2019-02-24T09:27:56Z</time>
      </trkpt>
      <trkpt lat="43.43593" lon="5.90633">
        <ele>290.94</ele>
        <time>2019-02-24T09:27:57Z</time>
      </trkpt>
      <trkpt lat="43.43594" lon="5.90638">
        <ele>290.94</ele>
        <time>2019-02-24T09:27:59Z</time>
      </trkpt>
      <trkpt lat="43.43586" lon="5.90661">
        <ele>292.86</ele>
        <time>2019-02-24T09:28:08Z</time>
      </trkpt>
      <trkpt lat="43.43582" lon="5.90659">
        <ele>293.82</ele>
        <time>2019-02-24T09:28:11Z</time>
      </trkpt>
      <trkpt lat="43.43582" lon="5.90652">
        <ele>293.82</ele>
        <time>2019-02-24T09:28:15Z</time>
      </trkpt>
      <trkpt lat="43.43575" lon="5.90644">
        <ele>293.82</ele>
        <time>2019-02-24T09:28:20Z</time>
      </trkpt>
      <trkpt lat="43.4355" lon="5.90639">
        <ele>293.82</ele>
        <time>2019-02-24T09:28:32Z</time>
      </trkpt>
      <trkpt lat="43.43513" lon="5.90638">
        <ele>292.38</ele>
        <time>2019-02-24T09:28:46Z</time>
      </trkpt>
      <trkpt lat="43.43489" lon="5.90641">
        <ele>289.01</ele>
        <time>2019-02-24T09:28:55Z</time>
      </trkpt>
      <trkpt lat="43.43476" lon="5.90651">
        <ele>288.53</ele>
        <time>2019-02-24T09:28:59Z</time>
      </trkpt>
      <trkpt lat="43.43473" lon="5.90655">
        <ele>288.05</ele>
        <time>2019-02-24T09:29:00Z</time>
      </trkpt>
      <trkpt lat="43.43469" lon="5.9066">
        <ele>287.57</ele>
        <time>2019-02-24T09:29:01Z</time>
      </trkpt>
      <trkpt lat="43.43449" lon="5.90695">
        <ele>287.57</ele>
        <time>2019-02-24T09:29:08Z</time>
      </trkpt>
      <trkpt lat="43.43447" lon="5.907">
        <ele>287.57</ele>
        <time>2019-02-24T09:29:09Z</time>
      </trkpt>
      <trkpt lat="43.43444" lon="5.90705">
        <ele>287.57</ele>
        <time>2019-02-24T09:29:10Z</time>
      </trkpt>
      <trkpt lat="43.43443" lon="5.9071">
        <ele>287.57</ele>
        <time>2019-02-24T09:29:11Z</time>
      </trkpt>
      <trkpt lat="43.43441" lon="5.90714">
        <ele>287.57</ele>
        <time>2019-02-24T09:29:12Z</time>
      </trkpt>
      <trkpt lat="43.43439" lon="5.90719">
        <ele>287.57</ele>
        <time>2019-02-24T09:29:13Z</time>
      </trkpt>
      <trkpt lat="43.43437" lon="5.90723">
        <ele>287.57</ele>
        <time>2019-02-24T09:29:14Z</time>
      </trkpt>
      <trkpt lat="43.43423" lon="5.90761">
        <ele>287.57</ele>
        <time>2019-02-24T09:29:25Z</time>
      </trkpt>
      <trkpt lat="43.4341" lon="5.90806">
        <ele>289.49</ele>
        <time>2019-02-24T09:29:40Z</time>
      </trkpt>
      <trkpt lat="43.43407" lon="5.90818">
        <ele>289.49</ele>
        <time>2019-02-24T09:29:43Z</time>
      </trkpt>
      <trkpt lat="43.434" lon="5.90842">
        <ele>289.49</ele>
        <time>2019-02-24T09:29:54Z</time>
      </trkpt>
      <trkpt lat="43.43398" lon="5.90842">
        <ele>289.49</ele>
        <time>2019-02-24T09:30:02Z</time>
      </trkpt>
      <trkpt lat="43.43391" lon="5.90837">
        <ele>288.05</ele>
        <time>2019-02-24T09:30:06Z</time>
      </trkpt>
      <trkpt lat="43.43388" lon="5.90837">
        <ele>287.57</ele>
        <time>2019-02-24T09:30:07Z</time>
      </trkpt>
      <trkpt lat="43.43386" lon="5.90837">
        <ele>287.57</ele>
        <time>2019-02-24T09:30:08Z</time>
      </trkpt>
      <trkpt lat="43.43353" lon="5.90829">
        <ele>286.61</ele>
        <time>2019-02-24T09:30:19Z</time>
      </trkpt>
      <trkpt lat="43.43316" lon="5.90812">
        <ele>286.13</ele>
        <time>2019-02-24T09:30:32Z</time>
      </trkpt>
      <trkpt lat="43.43315" lon="5.9081">
        <ele>287.57</ele>
        <time>2019-02-24T09:30:33Z</time>
      </trkpt>
      <trkpt lat="43.43314" lon="5.90808">
        <ele>288.05</ele>
        <time>2019-02-24T09:30:34Z</time>
      </trkpt>
      <trkpt lat="43.43314" lon="5.90806">
        <ele>288.05</ele>
        <time>2019-02-24T09:30:35Z</time>
      </trkpt>
      <trkpt lat="43.433" lon="5.90766">
        <ele>288.53</ele>
        <time>2019-02-24T09:30:49Z</time>
      </trkpt>
      <trkpt lat="43.43272" lon="5.90741">
        <ele>289.01</ele>
        <time>2019-02-24T09:31:05Z</time>
      </trkpt>
      <trkpt lat="43.43241" lon="5.90736">
        <ele>289.97</ele>
        <time>2019-02-24T09:31:19Z</time>
      </trkpt>
      <trkpt lat="43.43239" lon="5.90737">
        <ele>289.97</ele>
        <time>2019-02-24T09:31:20Z</time>
      </trkpt>
      <trkpt lat="43.43217" lon="5.90763">
        <ele>291.42</ele>
        <time>2019-02-24T09:31:37Z</time>
      </trkpt>
      <trkpt lat="43.43198" lon="5.90788">
        <ele>292.86</ele>
        <time>2019-02-24T09:31:51Z</time>
      </trkpt>
      <trkpt lat="43.43198" lon="5.90788">
        <ele>293.34</ele>
        <time>2019-02-24T09:31:56Z</time>
      </trkpt>
      <trkpt lat="43.43209" lon="5.90762">
        <ele>291.9</ele>
        <time>2019-02-24T09:32:05Z</time>
      </trkpt>
      <trkpt lat="43.43243" lon="5.90731">
        <ele>290.46</ele>
        <time>2019-02-24T09:32:19Z</time>
      </trkpt>
      <trkpt lat="43.43282" lon="5.90742">
        <ele>289.01</ele>
        <time>2019-02-24T09:32:33Z</time>
      </trkpt>
      <trkpt lat="43.43309" lon="5.90785">
        <ele>288.53</ele>
        <time>2019-02-24T09:32:48Z</time>
      </trkpt>
      <trkpt lat="43.43332" lon="5.90803">
        <ele>286.61</ele>
        <time>2019-02-24T09:32:59Z</time>
      </trkpt>
      <trkpt lat="43.43337" lon="5.90807">
        <ele>286.61</ele>
        <time>2019-02-24T09:33:03Z</time>
      </trkpt>
      <trkpt lat="43.4334" lon="5.90808">
        <ele>286.61</ele>
        <time>2019-02-24T09:33:07Z</time>
      </trkpt>
      <trkpt lat="43.43343" lon="5.9081">
        <ele>286.61</ele>
        <time>2019-02-24T09:33:12Z</time>
      </trkpt>
      <trkpt lat="43.43344" lon="5.90812">
        <ele>286.61</ele>
        <time>2019-02-24T09:33:13Z</time>
      </trkpt>
      <trkpt lat="43.43345" lon="5.90813">
        <ele>286.61</ele>
        <time>2019-02-24T09:33:14Z</time>
      </trkpt>
      <trkpt lat="43.43347" lon="5.90814">
        <ele>286.61</ele>
        <time>2019-02-24T09:33:15Z</time>
      </trkpt>
      <trkpt lat="43.4335" lon="5.90816">
        <ele>286.61</ele>
        <time>2019-02-24T09:33:16Z</time>
      </trkpt>
      <trkpt lat="43.43386" lon="5.90833">
        <ele>288.05</ele>
        <time>2019-02-24T09:33:32Z</time>
      </trkpt>
      <trkpt lat="43.43389" lon="5.90836">
        <ele>288.53</ele>
        <time>2019-02-24T09:33:34Z</time>
      </trkpt>
      <trkpt lat="43.43389" lon="5.90845">
        <ele>289.01</ele>
        <time>2019-02-24T09:33:38Z</time>
      </trkpt>
      <trkpt lat="43.43388" lon="5.90848">
        <ele>289.01</ele>
        <time>2019-02-24T09:33:39Z</time>
      </trkpt>
      <trkpt lat="43.43371" lon="5.9091">
        <ele>290.46</ele>
        <time>2019-02-24T09:33:58Z</time>
      </trkpt>
      <trkpt lat="43.43355" lon="5.90954">
        <ele>292.86</ele>
        <time>2019-02-24T09:34:13Z</time>
      </trkpt>
      <trkpt lat="43.43341" lon="5.90982">
        <ele>291.9</ele>
        <time>2019-02-24T09:34:22Z</time>
      </trkpt>
      <trkpt lat="43.43336" lon="5.90986">
        <ele>291.42</ele>
        <time>2019-02-24T09:34:23Z</time>
      </trkpt>
      <trkpt lat="43.43331" lon="5.9099">
        <ele>290.94</ele>
        <time>2019-02-24T09:34:24Z</time>
      </trkpt>
      <trkpt lat="43.43326" lon="5.90996">
        <ele>290.46</ele>
        <time>2019-02-24T09:34:25Z</time>
      </trkpt>
      <trkpt lat="43.43322" lon="5.91002">
        <ele>290.46</ele>
        <time>2019-02-24T09:34:26Z</time>
      </trkpt>
      <trkpt lat="43.43293" lon="5.91039">
        <ele>290.46</ele>
        <time>2019-02-24T09:34:33Z</time>
      </trkpt>
      <trkpt lat="43.43245" lon="5.91101">
        <ele>290.94</ele>
        <time>2019-02-24T09:34:48Z</time>
      </trkpt>
      <trkpt lat="43.4321" lon="5.91132">
        <ele>292.38</ele>
        <time>2019-02-24T09:35:00Z</time>
      </trkpt>
      <trkpt lat="43.43177" lon="5.91189">
        <ele>292.86</ele>
        <time>2019-02-24T09:35:15Z</time>
      </trkpt>
      <trkpt lat="43.43139" lon="5.9123">
        <ele>293.82</ele>
        <time>2019-02-24T09:35:29Z</time>
      </trkpt>
      <trkpt lat="43.43091" lon="5.91269">
        <ele>294.78</ele>
        <time>2019-02-24T09:35:46Z</time>
      </trkpt>
      <trkpt lat="43.43067" lon="5.91284">
        <ele>298.15</ele>
        <time>2019-02-24T09:35:58Z</time>
      </trkpt>
      <trkpt lat="43.43049" lon="5.91293">
        <ele>301.03</ele>
        <time>2019-02-24T09:36:08Z</time>
      </trkpt>
      <trkpt lat="43.43027" lon="5.91308">
        <ele>302.47</ele>
        <time>2019-02-24T09:36:19Z</time>
      </trkpt>
      <trkpt lat="43.43001" lon="5.91321">
        <ele>304.88</ele>
        <time>2019-02-24T09:36:33Z</time>
      </trkpt>
      <trkpt lat="43.42967" lon="5.91336">
        <ele>308.72</ele>
        <time>2019-02-24T09:36:47Z</time>
      </trkpt>
      <trkpt lat="43.42952" lon="5.91366">
        <ele>308.24</ele>
        <time>2019-02-24T09:37:00Z</time>
      </trkpt>
      <trkpt lat="43.4295" lon="5.91372">
        <ele>308.24</ele>
        <time>2019-02-24T09:37:01Z</time>
      </trkpt>
      <trkpt lat="43.42947" lon="5.91378">
        <ele>308.72</ele>
        <time>2019-02-24T09:37:02Z</time>
      </trkpt>
      <trkpt lat="43.42943" lon="5.91383">
        <ele>308.72</ele>
        <time>2019-02-24T09:37:03Z</time>
      </trkpt>
      <trkpt lat="43.42936" lon="5.91393">
        <ele>307.28</ele>
        <time>2019-02-24T09:37:05Z</time>
      </trkpt>
      <trkpt lat="43.42904" lon="5.91434">
        <ele>305.36</ele>
        <time>2019-02-24T09:37:15Z</time>
      </trkpt>
      <trkpt lat="43.429" lon="5.91436">
        <ele>305.84</ele>
        <time>2019-02-24T09:37:23Z</time>
      </trkpt>
      <trkpt lat="43.42901" lon="5.91436">
        <ele>305.84</ele>
        <time>2019-02-24T09:37:24Z</time>
      </trkpt>
      <trkpt lat="43.42902" lon="5.91435">
        <ele>305.84</ele>
        <time>2019-02-24T09:37:25Z</time>
      </trkpt>
      <trkpt lat="43.42922" lon="5.91415">
        <ele>305.36</ele>
        <time>2019-02-24T09:37:38Z</time>
      </trkpt>
      <trkpt lat="43.42923" lon="5.91411">
        <ele>304.88</ele>
        <time>2019-02-24T09:37:39Z</time>
      </trkpt>
      <trkpt lat="43.42923" lon="5.91406">
        <ele>304.88</ele>
        <time>2019-02-24T09:37:40Z</time>
      </trkpt>
      <trkpt lat="43.42923" lon="5.91402">
        <ele>304.88</ele>
        <time>2019-02-24T09:37:41Z</time>
      </trkpt>
      <trkpt lat="43.4292" lon="5.91398">
        <ele>303.91</ele>
        <time>2019-02-24T09:37:42Z</time>
      </trkpt>
      <trkpt lat="43.42918" lon="5.91395">
        <ele>303.43</ele>
        <time>2019-02-24T09:37:43Z</time>
      </trkpt>
      <trkpt lat="43.42914" lon="5.91391">
        <ele>303.43</ele>
        <time>2019-02-24T09:37:44Z</time>
      </trkpt>
      <trkpt lat="43.42911" lon="5.91386">
        <ele>303.43</ele>
        <time>2019-02-24T09:37:45Z</time>
      </trkpt>
      <trkpt lat="43.42904" lon="5.91377">
        <ele>301.99</ele>
        <time>2019-02-24T09:37:47Z</time>
      </trkpt>
      <trkpt lat="43.42902" lon="5.91372">
        <ele>301.99</ele>
        <time>2019-02-24T09:37:48Z</time>
      </trkpt>
      <trkpt lat="43.429" lon="5.91366">
        <ele>301.99</ele>
        <time>2019-02-24T09:37:49Z</time>
      </trkpt>
      <trkpt lat="43.42898" lon="5.91359">
        <ele>301.51</ele>
        <time>2019-02-24T09:37:50Z</time>
      </trkpt>
      <trkpt lat="43.42897" lon="5.91352">
        <ele>301.03</ele>
        <time>2019-02-24T09:37:51Z</time>
      </trkpt>
      <trkpt lat="43.42895" lon="5.91345">
        <ele>300.55</ele>
        <time>2019-02-24T09:37:52Z</time>
      </trkpt>
      <trkpt lat="43.42893" lon="5.91339">
        <ele>300.55</ele>
        <time>2019-02-24T09:37:53Z</time>
      </trkpt>
      <trkpt lat="43.4289" lon="5.91335">
        <ele>299.59</ele>
        <time>2019-02-24T09:37:54Z</time>
      </trkpt>
      <trkpt lat="43.42887" lon="5.91331">
        <ele>299.59</ele>
        <time>2019-02-24T09:37:55Z</time>
      </trkpt>
      <trkpt lat="43.42882" lon="5.91322">
        <ele>299.11</ele>
        <time>2019-02-24T09:37:57Z</time>
      </trkpt>
      <trkpt lat="43.42878" lon="5.91321">
        <ele>299.11</ele>
        <time>2019-02-24T09:37:58Z</time>
      </trkpt>
      <trkpt lat="43.42828" lon="5.91307">
        <ele>298.63</ele>
        <time>2019-02-24T09:38:13Z</time>
      </trkpt>
      <trkpt lat="43.42786" lon="5.913">
        <ele>300.07</ele>
        <time>2019-02-24T09:38:24Z</time>
      </trkpt>
      <trkpt lat="43.42754" lon="5.91278">
        <ele>300.55</ele>
        <time>2019-02-24T09:38:35Z</time>
      </trkpt>
      <trkpt lat="43.42732" lon="5.9127">
        <ele>301.99</ele>
        <time>2019-02-24T09:38:43Z</time>
      </trkpt>
      <trkpt lat="43.4273" lon="5.91268">
        <ele>301.99</ele>
        <time>2019-02-24T09:38:44Z</time>
      </trkpt>
      <trkpt lat="43.42729" lon="5.91265">
        <ele>301.99</ele>
        <time>2019-02-24T09:38:45Z</time>
      </trkpt>
      <trkpt lat="43.42722" lon="5.91215">
        <ele>301.99</ele>
        <time>2019-02-24T09:38:56Z</time>
      </trkpt>
      <trkpt lat="43.42711" lon="5.91174">
        <ele>301.99</ele>
        <time>2019-02-24T09:39:08Z</time>
      </trkpt>
      <trkpt lat="43.42679" lon="5.91133">
        <ele>304.39</ele>
        <time>2019-02-24T09:39:24Z</time>
      </trkpt>
      <trkpt lat="43.42676" lon="5.91078">
        <ele>307.28</ele>
        <time>2019-02-24T09:39:39Z</time>
      </trkpt>
      <trkpt lat="43.42665" lon="5.9103">
        <ele>308.72</ele>
        <time>2019-02-24T09:39:54Z</time>
      </trkpt>
      <trkpt lat="43.4265" lon="5.90971">
        <ele>309.68</ele>
        <time>2019-02-24T09:40:11Z</time>
      </trkpt>
      <trkpt lat="43.42632" lon="5.90943">
        <ele>309.68</ele>
        <time>2019-02-24T09:40:23Z</time>
      </trkpt>
      <trkpt lat="43.426" lon="5.90912">
        <ele>311.6</ele>
        <time>2019-02-24T09:40:37Z</time>
      </trkpt>
      <trkpt lat="43.42578" lon="5.9089">
        <ele>313.05</ele>
        <time>2019-02-24T09:40:49Z</time>
      </trkpt>
      <trkpt lat="43.42545" lon="5.90878">
        <ele>314.97</ele>
        <time>2019-02-24T09:41:03Z</time>
      </trkpt>
      <trkpt lat="43.42523" lon="5.90865">
        <ele>318.33</ele>
        <time>2019-02-24T09:41:14Z</time>
      </trkpt>
      <trkpt lat="43.4249" lon="5.90853">
        <ele>320.26</ele>
        <time>2019-02-24T09:41:29Z</time>
      </trkpt>
      <trkpt lat="43.42455" lon="5.90843">
        <ele>321.7</ele>
        <time>2019-02-24T09:41:43Z</time>
      </trkpt>
      <trkpt lat="43.42424" lon="5.9081">
        <ele>321.7</ele>
        <time>2019-02-24T09:41:54Z</time>
      </trkpt>
      <trkpt lat="43.42412" lon="5.90755">
        <ele>319.78</ele>
        <time>2019-02-24T09:42:06Z</time>
      </trkpt>
      <trkpt lat="43.42388" lon="5.90694">
        <ele>318.33</ele>
        <time>2019-02-24T09:42:19Z</time>
      </trkpt>
      <trkpt lat="43.42375" lon="5.90671">
        <ele>314.97</ele>
        <time>2019-02-24T09:42:26Z</time>
      </trkpt>
      <trkpt lat="43.42368" lon="5.90656">
        <ele>313.05</ele>
        <time>2019-02-24T09:42:31Z</time>
      </trkpt>
      <trkpt lat="43.42368" lon="5.90654">
        <ele>313.05</ele>
        <time>2019-02-24T09:42:32Z</time>
      </trkpt>
      <trkpt lat="43.42368" lon="5.90651">
        <ele>313.05</ele>
        <time>2019-02-24T09:42:33Z</time>
      </trkpt>
      <trkpt lat="43.42369" lon="5.90647">
        <ele>313.05</ele>
        <time>2019-02-24T09:42:34Z</time>
      </trkpt>
      <trkpt lat="43.4237" lon="5.90645">
        <ele>313.05</ele>
        <time>2019-02-24T09:42:35Z</time>
      </trkpt>
      <trkpt lat="43.42372" lon="5.90643">
        <ele>313.05</ele>
        <time>2019-02-24T09:42:36Z</time>
      </trkpt>
      <trkpt lat="43.42374" lon="5.9064">
        <ele>313.05</ele>
        <time>2019-02-24T09:42:37Z</time>
      </trkpt>
      <trkpt lat="43.42376" lon="5.90637">
        <ele>313.05</ele>
        <time>2019-02-24T09:42:38Z</time>
      </trkpt>
      <trkpt lat="43.42385" lon="5.90618">
        <ele>314.49</ele>
        <time>2019-02-24T09:42:43Z</time>
      </trkpt>
      <trkpt lat="43.4241" lon="5.90549">
        <ele>316.41</ele>
        <time>2019-02-24T09:42:59Z</time>
      </trkpt>
      <trkpt lat="43.42433" lon="5.90492">
        <ele>318.81</ele>
        <time>2019-02-24T09:43:14Z</time>
      </trkpt>
      <trkpt lat="43.42451" lon="5.90438">
        <ele>318.81</ele>
        <time>2019-02-24T09:43:27Z</time>
      </trkpt>
      <trkpt lat="43.42455" lon="5.90427">
        <ele>317.37</ele>
        <time>2019-02-24T09:43:29Z</time>
      </trkpt>
      <trkpt lat="43.42463" lon="5.90406">
        <ele>316.89</ele>
        <time>2019-02-24T09:43:33Z</time>
      </trkpt>
      <trkpt lat="43.42465" lon="5.90401">
        <ele>316.89</ele>
        <time>2019-02-24T09:43:34Z</time>
      </trkpt>
      <trkpt lat="43.42468" lon="5.90396">
        <ele>315.93</ele>
        <time>2019-02-24T09:43:35Z</time>
      </trkpt>
      <trkpt lat="43.42472" lon="5.90392">
        <ele>315.93</ele>
        <time>2019-02-24T09:43:36Z</time>
      </trkpt>
      <trkpt lat="43.42476" lon="5.90388">
        <ele>315.45</ele>
        <time>2019-02-24T09:43:37Z</time>
      </trkpt>
      <trkpt lat="43.42483" lon="5.9038">
        <ele>314.49</ele>
        <time>2019-02-24T09:43:39Z</time>
      </trkpt>
      <trkpt lat="43.42503" lon="5.90363">
        <ele>314.01</ele>
        <time>2019-02-24T09:43:44Z</time>
      </trkpt>
      <trkpt lat="43.42508" lon="5.90361">
        <ele>313.53</ele>
        <time>2019-02-24T09:43:45Z</time>
      </trkpt>
      <trkpt lat="43.42513" lon="5.9036">
        <ele>313.53</ele>
        <time>2019-02-24T09:43:46Z</time>
      </trkpt>
      <trkpt lat="43.42517" lon="5.90361">
        <ele>312.57</ele>
        <time>2019-02-24T09:43:47Z</time>
      </trkpt>
      <trkpt lat="43.42521" lon="5.90362">
        <ele>312.57</ele>
        <time>2019-02-24T09:43:48Z</time>
      </trkpt>
      <trkpt lat="43.42525" lon="5.90365">
        <ele>311.12</ele>
        <time>2019-02-24T09:43:49Z</time>
      </trkpt>
      <trkpt lat="43.42529" lon="5.90368">
        <ele>312.57</ele>
        <time>2019-02-24T09:43:50Z</time>
      </trkpt>
      <trkpt lat="43.42534" lon="5.90371">
        <ele>312.57</ele>
        <time>2019-02-24T09:43:51Z</time>
      </trkpt>
      <trkpt lat="43.42556" lon="5.90389">
        <ele>309.68</ele>
        <time>2019-02-24T09:43:58Z</time>
      </trkpt>
      <trkpt lat="43.42564" lon="5.90398">
        <ele>308.72</ele>
        <time>2019-02-24T09:44:01Z</time>
      </trkpt>
      <trkpt lat="43.42569" lon="5.90401">
        <ele>308.72</ele>
        <time>2019-02-24T09:44:02Z</time>
      </trkpt>
      <trkpt lat="43.42573" lon="5.90403">
        <ele>308.24</ele>
        <time>2019-02-24T09:44:03Z</time>
      </trkpt>
      <trkpt lat="43.42603" lon="5.90411">
        <ele>305.84</ele>
        <time>2019-02-24T09:44:10Z</time>
      </trkpt>
      <trkpt lat="43.42632" lon="5.90423">
        <ele>303.91</ele>
        <time>2019-02-24T09:44:17Z</time>
      </trkpt>
      <trkpt lat="43.42637" lon="5.90424">
        <ele>303.43</ele>
        <time>2019-02-24T09:44:18Z</time>
      </trkpt>
      <trkpt lat="43.42659" lon="5.90435">
        <ele>301.51</ele>
        <time>2019-02-24T09:44:22Z</time>
      </trkpt>
      <trkpt lat="43.42664" lon="5.90438">
        <ele>301.03</ele>
        <time>2019-02-24T09:44:23Z</time>
      </trkpt>
      <trkpt lat="43.42669" lon="5.90443">
        <ele>301.03</ele>
        <time>2019-02-24T09:44:24Z</time>
      </trkpt>
      <trkpt lat="43.42674" lon="5.90448">
        <ele>301.03</ele>
        <time>2019-02-24T09:44:25Z</time>
      </trkpt>
      <trkpt lat="43.42679" lon="5.90453">
        <ele>301.03</ele>
        <time>2019-02-24T09:44:26Z</time>
      </trkpt>
      <trkpt lat="43.42684" lon="5.90458">
        <ele>299.11</ele>
        <time>2019-02-24T09:44:27Z</time>
      </trkpt>
      <trkpt lat="43.42698" lon="5.9047">
        <ele>299.59</ele>
        <time>2019-02-24T09:44:30Z</time>
      </trkpt>
      <trkpt lat="43.42703" lon="5.90473">
        <ele>299.59</ele>
        <time>2019-02-24T09:44:31Z</time>
      </trkpt>
      <trkpt lat="43.42708" lon="5.90476">
        <ele>299.11</ele>
        <time>2019-02-24T09:44:32Z</time>
      </trkpt>
      <trkpt lat="43.42713" lon="5.90478">
        <ele>299.59</ele>
        <time>2019-02-24T09:44:33Z</time>
      </trkpt>
      <trkpt lat="43.42717" lon="5.90479">
        <ele>299.11</ele>
        <time>2019-02-24T09:44:34Z</time>
      </trkpt>
      <trkpt lat="43.42748" lon="5.90471">
        <ele>301.51</ele>
        <time>2019-02-24T09:44:44Z</time>
      </trkpt>
      <trkpt lat="43.42771" lon="5.90461">
        <ele>301.99</ele>
        <time>2019-02-24T09:44:54Z</time>
      </trkpt>
      <trkpt lat="43.4279" lon="5.90457">
        <ele>302.95</ele>
        <time>2019-02-24T09:45:01Z</time>
      </trkpt>
      <trkpt lat="43.42796" lon="5.90454">
        <ele>302.95</ele>
        <time>2019-02-24T09:45:03Z</time>
      </trkpt>
      <trkpt lat="43.428" lon="5.90454">
        <ele>302.95</ele>
        <time>2019-02-24T09:45:04Z</time>
      </trkpt>
      <trkpt lat="43.42803" lon="5.90453">
        <ele>302.95</ele>
        <time>2019-02-24T09:45:05Z</time>
      </trkpt>
      <trkpt lat="43.42806" lon="5.90453">
        <ele>301.51</ele>
        <time>2019-02-24T09:45:06Z</time>
      </trkpt>
      <trkpt lat="43.42809" lon="5.90453">
        <ele>301.51</ele>
        <time>2019-02-24T09:45:07Z</time>
      </trkpt>
      <trkpt lat="43.42813" lon="5.90452">
        <ele>301.03</ele>
        <time>2019-02-24T09:45:08Z</time>
      </trkpt>
      <trkpt lat="43.42827" lon="5.9045">
        <ele>299.59</ele>
        <time>2019-02-24T09:45:12Z</time>
      </trkpt>
      <trkpt lat="43.42894" lon="5.90446">
        <ele>300.07</ele>
        <time>2019-02-24T09:45:26Z</time>
      </trkpt>
      <trkpt lat="43.4295" lon="5.90435">
        <ele>301.51</ele>
        <time>2019-02-24T09:45:42Z</time>
      </trkpt>
      <trkpt lat="43.42953" lon="5.90435">
        <ele>301.51</ele>
        <time>2019-02-24T09:45:43Z</time>
      </trkpt>
      <trkpt lat="43.42999" lon="5.90425">
        <ele>302.95</ele>
        <time>2019-02-24T09:45:59Z</time>
      </trkpt>
      <trkpt lat="43.43012" lon="5.90407">
        <ele>304.88</ele>
        <time>2019-02-24T09:46:07Z</time>
      </trkpt>
      <trkpt lat="43.43014" lon="5.90406">
        <ele>304.88</ele>
        <time>2019-02-24T09:46:08Z</time>
      </trkpt>
      <trkpt lat="43.43018" lon="5.90406">
        <ele>305.84</ele>
        <time>2019-02-24T09:46:10Z</time>
      </trkpt>
      <trkpt lat="43.43019" lon="5.90408">
        <ele>306.32</ele>
        <time>2019-02-24T09:46:11Z</time>
      </trkpt>
      <trkpt lat="43.43021" lon="5.90412">
        <ele>306.8</ele>
        <time>2019-02-24T09:46:13Z</time>
      </trkpt>
      <trkpt lat="43.43023" lon="5.90413">
        <ele>306.8</ele>
        <time>2019-02-24T09:46:14Z</time>
      </trkpt>
      <trkpt lat="43.43024" lon="5.90414">
        <ele>306.8</ele>
        <time>2019-02-24T09:46:15Z</time>
      </trkpt>
      <trkpt lat="43.43025" lon="5.90415">
        <ele>307.28</ele>
        <time>2019-02-24T09:46:16Z</time>
      </trkpt>
      <trkpt lat="43.43027" lon="5.90416">
        <ele>307.28</ele>
        <time>2019-02-24T09:46:17Z</time>
      </trkpt>
      <trkpt lat="43.43029" lon="5.90418">
        <ele>307.76</ele>
        <time>2019-02-24T09:46:18Z</time>
      </trkpt>
      <trkpt lat="43.43069" lon="5.90425">
        <ele>307.76</ele>
        <time>2019-02-24T09:46:31Z</time>
      </trkpt>
      <trkpt lat="43.43071" lon="5.90424">
        <ele>307.76</ele>
        <time>2019-02-24T09:46:32Z</time>
      </trkpt>
      <trkpt lat="43.43074" lon="5.90423">
        <ele>307.76</ele>
        <time>2019-02-24T09:46:33Z</time>
      </trkpt>
      <trkpt lat="43.43083" lon="5.90418">
        <ele>307.76</ele>
        <time>2019-02-24T09:46:36Z</time>
      </trkpt>
      <trkpt lat="43.43085" lon="5.90414">
        <ele>306.32</ele>
        <time>2019-02-24T09:46:37Z</time>
      </trkpt>
      <trkpt lat="43.43088" lon="5.90412">
        <ele>306.32</ele>
        <time>2019-02-24T09:46:38Z</time>
      </trkpt>
      <trkpt lat="43.43115" lon="5.90389">
        <ele>306.32</ele>
        <time>2019-02-24T09:46:48Z</time>
      </trkpt>
      <trkpt lat="43.43153" lon="5.90373">
        <ele>306.8</ele>
        <time>2019-02-24T09:47:00Z</time>
      </trkpt>
      <trkpt lat="43.43172" lon="5.90355">
        <ele>303.91</ele>
        <time>2019-02-24T09:47:10Z</time>
      </trkpt>
      <trkpt lat="43.43174" lon="5.90355">
        <ele>302.95</ele>
        <time>2019-02-24T09:47:11Z</time>
      </trkpt>
      <trkpt lat="43.43177" lon="5.90356">
        <ele>302.95</ele>
        <time>2019-02-24T09:47:12Z</time>
      </trkpt>
      <trkpt lat="43.4318" lon="5.90357">
        <ele>302.47</ele>
        <time>2019-02-24T09:47:13Z</time>
      </trkpt>
      <trkpt lat="43.43184" lon="5.90358">
        <ele>302.47</ele>
        <time>2019-02-24T09:47:14Z</time>
      </trkpt>
      <trkpt lat="43.43187" lon="5.9036">
        <ele>301.99</ele>
        <time>2019-02-24T09:47:15Z</time>
      </trkpt>
      <trkpt lat="43.43191" lon="5.90361">
        <ele>301.51</ele>
        <time>2019-02-24T09:47:16Z</time>
      </trkpt>
      <trkpt lat="43.4322" lon="5.90363">
        <ele>300.55</ele>
        <time>2019-02-24T09:47:25Z</time>
      </trkpt>
      <trkpt lat="43.43223" lon="5.90362">
        <ele>300.55</ele>
        <time>2019-02-24T09:47:26Z</time>
      </trkpt>
      <trkpt lat="43.43242" lon="5.90345">
        <ele>299.11</ele>
        <time>2019-02-24T09:47:34Z</time>
      </trkpt>
      <trkpt lat="43.43243" lon="5.90342">
        <ele>299.11</ele>
        <time>2019-02-24T09:47:35Z</time>
      </trkpt>
      <trkpt lat="43.43244" lon="5.9034">
        <ele>298.63</ele>
        <time>2019-02-24T09:47:36Z</time>
      </trkpt>
      <trkpt lat="43.43246" lon="5.90338">
        <ele>298.63</ele>
        <time>2019-02-24T09:47:37Z</time>
      </trkpt>
      <trkpt lat="43.43247" lon="5.90337">
        <ele>297.67</ele>
        <time>2019-02-24T09:47:38Z</time>
      </trkpt>
      <trkpt lat="43.43249" lon="5.90336">
        <ele>297.67</ele>
        <time>2019-02-24T09:47:39Z</time>
      </trkpt>
      <trkpt lat="43.43251" lon="5.90335">
        <ele>297.18</ele>
        <time>2019-02-24T09:47:40Z</time>
      </trkpt>
      <trkpt lat="43.43255" lon="5.90334">
        <ele>296.22</ele>
        <time>2019-02-24T09:47:41Z</time>
      </trkpt>
      <trkpt lat="43.43257" lon="5.90334">
        <ele>296.7</ele>
        <time>2019-02-24T09:47:42Z</time>
      </trkpt>
      <trkpt lat="43.43276" lon="5.90322">
        <ele>294.3</ele>
        <time>2019-02-24T09:47:48Z</time>
      </trkpt>
      <trkpt lat="43.43293" lon="5.90317">
        <ele>291.9</ele>
        <time>2019-02-24T09:47:52Z</time>
      </trkpt>
      <trkpt lat="43.43298" lon="5.90315">
        <ele>291.42</ele>
        <time>2019-02-24T09:47:53Z</time>
      </trkpt>
      <trkpt lat="43.43302" lon="5.90312">
        <ele>291.42</ele>
        <time>2019-02-24T09:47:54Z</time>
      </trkpt>
      <trkpt lat="43.43306" lon="5.90309">
        <ele>291.42</ele>
        <time>2019-02-24T09:47:55Z</time>
      </trkpt>
      <trkpt lat="43.43317" lon="5.90298">
        <ele>290.94</ele>
        <time>2019-02-24T09:47:58Z</time>
      </trkpt>
      <trkpt lat="43.43325" lon="5.90292">
        <ele>290.94</ele>
        <time>2019-02-24T09:48:00Z</time>
      </trkpt>
      <trkpt lat="43.43329" lon="5.90289">
        <ele>290.94</ele>
        <time>2019-02-24T09:48:01Z</time>
      </trkpt>
      <trkpt lat="43.43334" lon="5.90288">
        <ele>290.46</ele>
        <time>2019-02-24T09:48:02Z</time>
      </trkpt>
      <trkpt lat="43.43338" lon="5.90287">
        <ele>290.46</ele>
        <time>2019-02-24T09:48:03Z</time>
      </trkpt>
      <trkpt lat="43.43342" lon="5.90286">
        <ele>290.46</ele>
        <time>2019-02-24T09:48:04Z</time>
      </trkpt>
      <trkpt lat="43.43369" lon="5.90269">
        <ele>289.97</ele>
        <time>2019-02-24T09:48:13Z</time>
      </trkpt>
      <trkpt lat="43.43389" lon="5.90238">
        <ele>289.49</ele>
        <time>2019-02-24T09:48:23Z</time>
      </trkpt>
      <trkpt lat="43.43416" lon="5.90209">
        <ele>289.49</ele>
        <time>2019-02-24T09:48:34Z</time>
      </trkpt>
      <trkpt lat="43.43457" lon="5.90213">
        <ele>289.49</ele>
        <time>2019-02-24T09:48:49Z</time>
      </trkpt>
      <trkpt lat="43.43487" lon="5.90233">
        <ele>289.49</ele>
        <time>2019-02-24T09:49:04Z</time>
      </trkpt>
      <trkpt lat="43.43511" lon="5.90216">
        <ele>289.49</ele>
        <time>2019-02-24T09:49:16Z</time>
      </trkpt>
      <trkpt lat="43.43532" lon="5.90193">
        <ele>289.49</ele>
        <time>2019-02-24T09:49:28Z</time>
      </trkpt>
      <trkpt lat="43.43548" lon="5.90165">
        <ele>289.49</ele>
        <time>2019-02-24T09:49:38Z</time>
      </trkpt>
      <trkpt lat="43.43572" lon="5.90151">
        <ele>288.05</ele>
        <time>2019-02-24T09:49:52Z</time>
      </trkpt>
      <trkpt lat="43.43572" lon="5.90149">
        <ele>288.05</ele>
        <time>2019-02-24T09:50:16Z</time>
      </trkpt>
      <trkpt lat="43.43595" lon="5.90166">
        <ele>288.05</ele>
        <time>2019-02-24T09:50:30Z</time>
      </trkpt>
      <trkpt lat="43.43626" lon="5.90175">
        <ele>289.49</ele>
        <time>2019-02-24T09:50:45Z</time>
      </trkpt>
      <trkpt lat="43.43652" lon="5.90184">
        <ele>290.94</ele>
        <time>2019-02-24T09:50:59Z</time>
      </trkpt>
      <trkpt lat="43.43661" lon="5.90197">
        <ele>291.42</ele>
        <time>2019-02-24T09:51:07Z</time>
      </trkpt>
      <trkpt lat="43.43671" lon="5.90212">
        <ele>293.82</ele>
        <time>2019-02-24T09:51:22Z</time>
      </trkpt>
      <trkpt lat="43.43674" lon="5.90214">
        <ele>294.3</ele>
        <time>2019-02-24T09:51:31Z</time>
      </trkpt>
      <trkpt lat="43.43683" lon="5.90208">
        <ele>294.3</ele>
        <time>2019-02-24T09:51:35Z</time>
      </trkpt>
      <trkpt lat="43.43692" lon="5.90197">
        <ele>291.42</ele>
        <time>2019-02-24T09:51:38Z</time>
      </trkpt>
      <trkpt lat="43.43714" lon="5.90168">
        <ele>293.34</ele>
        <time>2019-02-24T09:51:51Z</time>
      </trkpt>
      <trkpt lat="43.43737" lon="5.90171">
        <ele>294.3</ele>
        <time>2019-02-24T09:52:03Z</time>
      </trkpt>
      <trkpt lat="43.43763" lon="5.90165">
        <ele>296.22</ele>
        <time>2019-02-24T09:52:16Z</time>
      </trkpt>
      <trkpt lat="43.43787" lon="5.90148">
        <ele>299.59</ele>
        <time>2019-02-24T09:52:27Z</time>
      </trkpt>
      <trkpt lat="43.43795" lon="5.90145">
        <ele>300.07</ele>
        <time>2019-02-24T09:52:32Z</time>
      </trkpt>
      <trkpt lat="43.43828" lon="5.9017">
        <ele>299.59</ele>
        <time>2019-02-24T09:52:46Z</time>
      </trkpt>
      <trkpt lat="43.43862" lon="5.90193">
        <ele>300.07</ele>
        <time>2019-02-24T09:52:59Z</time>
      </trkpt>
      <trkpt lat="43.4387" lon="5.90198">
        <ele>300.07</ele>
        <time>2019-02-24T09:53:13Z</time>
      </trkpt>
      <trkpt lat="43.43871" lon="5.90198">
        <ele>300.07</ele>
        <time>2019-02-24T09:53:14Z</time>
      </trkpt>
      <trkpt lat="43.43872" lon="5.90198">
        <ele>300.07</ele>
        <time>2019-02-24T09:53:15Z</time>
      </trkpt>
      <trkpt lat="43.43879" lon="5.90197">
        <ele>301.03</ele>
        <time>2019-02-24T09:53:21Z</time>
      </trkpt>
      <trkpt lat="43.43882" lon="5.90196">
        <ele>301.51</ele>
        <time>2019-02-24T09:53:25Z</time>
      </trkpt>
      <trkpt lat="43.43901" lon="5.90185">
        <ele>303.43</ele>
        <time>2019-02-24T09:53:41Z</time>
      </trkpt>
      <trkpt lat="43.43924" lon="5.90178">
        <ele>304.88</ele>
        <time>2019-02-24T09:53:56Z</time>
      </trkpt>
      <trkpt lat="43.43956" lon="5.90179">
        <ele>307.28</ele>
        <time>2019-02-24T09:54:13Z</time>
      </trkpt>
      <trkpt lat="43.43975" lon="5.90169">
        <ele>310.16</ele>
        <time>2019-02-24T09:54:22Z</time>
      </trkpt>
      <trkpt lat="43.43977" lon="5.90169">
        <ele>310.16</ele>
        <time>2019-02-24T09:54:23Z</time>
      </trkpt>
      <trkpt lat="43.43978" lon="5.90169">
        <ele>310.16</ele>
        <time>2019-02-24T09:54:24Z</time>
      </trkpt>
      <trkpt lat="43.43979" lon="5.9017">
        <ele>310.16</ele>
        <time>2019-02-24T09:54:25Z</time>
      </trkpt>
      <trkpt lat="43.43984" lon="5.90175">
        <ele>310.64</ele>
        <time>2019-02-24T09:54:30Z</time>
      </trkpt>
      <trkpt lat="43.43987" lon="5.90201">
        <ele>309.2</ele>
        <time>2019-02-24T09:54:37Z</time>
      </trkpt>
      <trkpt lat="43.43993" lon="5.90241">
        <ele>308.24</ele>
        <time>2019-02-24T09:54:47Z</time>
      </trkpt>
      <trkpt lat="43.43995" lon="5.90242">
        <ele>308.24</ele>
        <time>2019-02-24T09:54:48Z</time>
      </trkpt>
      <trkpt lat="43.44018" lon="5.90241">
        <ele>309.68</ele>
        <time>2019-02-24T09:55:00Z</time>
      </trkpt>
      <trkpt lat="43.44025" lon="5.90247">
        <ele>310.64</ele>
        <time>2019-02-24T09:55:04Z</time>
      </trkpt>
      <trkpt lat="43.44026" lon="5.90249">
        <ele>310.64</ele>
        <time>2019-02-24T09:55:05Z</time>
      </trkpt>
      <trkpt lat="43.44026" lon="5.90252">
        <ele>310.64</ele>
        <time>2019-02-24T09:55:06Z</time>
      </trkpt>
      <trkpt lat="43.44025" lon="5.90254">
        <ele>310.64</ele>
        <time>2019-02-24T09:55:07Z</time>
      </trkpt>
      <trkpt lat="43.44024" lon="5.90257">
        <ele>310.64</ele>
        <time>2019-02-24T09:55:08Z</time>
      </trkpt>
      <trkpt lat="43.44017" lon="5.90288">
        <ele>311.6</ele>
        <time>2019-02-24T09:55:21Z</time>
      </trkpt>
      <trkpt lat="43.43996" lon="5.90297">
        <ele>312.57</ele>
        <time>2019-02-24T09:55:33Z</time>
      </trkpt>
      <trkpt lat="43.4397" lon="5.90313">
        <ele>313.53</ele>
        <time>2019-02-24T09:55:47Z</time>
      </trkpt>
      <trkpt lat="43.43964" lon="5.90312">
        <ele>313.05</ele>
        <time>2019-02-24T09:55:51Z</time>
      </trkpt>
      <trkpt lat="43.4395" lon="5.90309">
        <ele>313.05</ele>
        <time>2019-02-24T09:56:03Z</time>
      </trkpt>
      <trkpt lat="43.4395" lon="5.9031">
        <ele>313.05</ele>
        <time>2019-02-24T09:56:04Z</time>
      </trkpt>
      <trkpt lat="43.43949" lon="5.90312">
        <ele>313.05</ele>
        <time>2019-02-24T09:56:05Z</time>
      </trkpt>
      <trkpt lat="43.4395" lon="5.90313">
        <ele>313.05</ele>
        <time>2019-02-24T09:56:07Z</time>
      </trkpt>
      <trkpt lat="43.43951" lon="5.90313">
        <ele>313.05</ele>
        <time>2019-02-24T09:56:08Z</time>
      </trkpt>
      <trkpt lat="43.43953" lon="5.90313">
        <ele>313.05</ele>
        <time>2019-02-24T09:56:11Z</time>
      </trkpt>
      <trkpt lat="43.43954" lon="5.90312">
        <ele>313.05</ele>
        <time>2019-02-24T09:56:12Z</time>
      </trkpt>
      <trkpt lat="43.43955" lon="5.90312">
        <ele>313.05</ele>
        <time>2019-02-24T09:56:13Z</time>
      </trkpt>
      <trkpt lat="43.43957" lon="5.90312">
        <ele>313.05</ele>
        <time>2019-02-24T09:56:14Z</time>
      </trkpt>
      <trkpt lat="43.43958" lon="5.90312">
        <ele>313.05</ele>
        <time>2019-02-24T09:56:15Z</time>
      </trkpt>
      <trkpt lat="43.43968" lon="5.90312">
        <ele>313.05</ele>
        <time>2019-02-24T09:56:22Z</time>
      </trkpt>
      <trkpt lat="43.43987" lon="5.90302">
        <ele>313.05</ele>
        <time>2019-02-24T09:56:33Z</time>
      </trkpt>
      <trkpt lat="43.44" lon="5.90299">
        <ele>312.09</ele>
        <time>2019-02-24T09:56:39Z</time>
      </trkpt>
      <trkpt lat="43.44012" lon="5.90294">
        <ele>311.6</ele>
        <time>2019-02-24T09:56:44Z</time>
      </trkpt>
      <trkpt lat="43.44013" lon="5.90291">
        <ele>311.6</ele>
        <time>2019-02-24T09:56:45Z</time>
      </trkpt>
      <trkpt lat="43.44014" lon="5.90289">
        <ele>311.6</ele>
        <time>2019-02-24T09:56:46Z</time>
      </trkpt>
      <trkpt lat="43.44015" lon="5.90286">
        <ele>311.6</ele>
        <time>2019-02-24T09:56:47Z</time>
      </trkpt>
      <trkpt lat="43.44016" lon="5.90284">
        <ele>311.6</ele>
        <time>2019-02-24T09:56:48Z</time>
      </trkpt>
      <trkpt lat="43.44017" lon="5.90281">
        <ele>311.6</ele>
        <time>2019-02-24T09:56:49Z</time>
      </trkpt>
      <trkpt lat="43.44018" lon="5.90279">
        <ele>311.6</ele>
        <time>2019-02-24T09:56:50Z</time>
      </trkpt>
      <trkpt lat="43.44019" lon="5.90277">
        <ele>311.6</ele>
        <time>2019-02-24T09:56:51Z</time>
      </trkpt>
      <trkpt lat="43.44025" lon="5.90265">
        <ele>311.12</ele>
        <time>2019-02-24T09:56:59Z</time>
      </trkpt>
      <trkpt lat="43.44025" lon="5.90263">
        <ele>311.12</ele>
        <time>2019-02-24T09:57:00Z</time>
      </trkpt>
      <trkpt lat="43.44022" lon="5.90256">
        <ele>311.12</ele>
        <time>2019-02-24T09:57:02Z</time>
      </trkpt>
      <trkpt lat="43.44022" lon="5.90253">
        <ele>310.64</ele>
        <time>2019-02-24T09:57:03Z</time>
      </trkpt>
      <trkpt lat="43.43998" lon="5.90241">
        <ele>308.72</ele>
        <time>2019-02-24T09:57:13Z</time>
      </trkpt>
      <trkpt lat="43.43997" lon="5.90237">
        <ele>308.72</ele>
        <time>2019-02-24T09:57:14Z</time>
      </trkpt>
      <trkpt lat="43.43997" lon="5.90234">
        <ele>308.72</ele>
        <time>2019-02-24T09:57:15Z</time>
      </trkpt>
      <trkpt lat="43.43997" lon="5.90231">
        <ele>308.72</ele>
        <time>2019-02-24T09:57:16Z</time>
      </trkpt>
      <trkpt lat="43.43997" lon="5.90227">
        <ele>308.72</ele>
        <time>2019-02-24T09:57:17Z</time>
      </trkpt>
      <trkpt lat="43.43993" lon="5.90178">
        <ele>311.12</ele>
        <time>2019-02-24T09:57:33Z</time>
      </trkpt>
      <trkpt lat="43.43979" lon="5.90175">
        <ele>311.12</ele>
        <time>2019-02-24T09:57:42Z</time>
      </trkpt>
      <trkpt lat="43.43978" lon="5.90177">
        <ele>309.68</ele>
        <time>2019-02-24T09:57:43Z</time>
      </trkpt>
      <trkpt lat="43.43978" lon="5.90178">
        <ele>309.68</ele>
        <time>2019-02-24T09:57:44Z</time>
      </trkpt>
      <trkpt lat="43.43978" lon="5.90179">
        <ele>309.68</ele>
        <time>2019-02-24T09:57:45Z</time>
      </trkpt>
      <trkpt lat="43.43979" lon="5.90181">
        <ele>308.72</ele>
        <time>2019-02-24T09:57:46Z</time>
      </trkpt>
      <trkpt lat="43.4398" lon="5.90182">
        <ele>308.72</ele>
        <time>2019-02-24T09:57:47Z</time>
      </trkpt>
      <trkpt lat="43.43982" lon="5.90183">
        <ele>308.24</ele>
        <time>2019-02-24T09:57:48Z</time>
      </trkpt>
      <trkpt lat="43.43983" lon="5.90184">
        <ele>308.24</ele>
        <time>2019-02-24T09:57:49Z</time>
      </trkpt>
      <trkpt lat="43.43986" lon="5.90187">
        <ele>308.24</ele>
        <time>2019-02-24T09:57:51Z</time>
      </trkpt>
      <trkpt lat="43.43988" lon="5.9019">
        <ele>308.24</ele>
        <time>2019-02-24T09:57:52Z</time>
      </trkpt>
      <trkpt lat="43.43988" lon="5.90193">
        <ele>308.24</ele>
        <time>2019-02-24T09:57:53Z</time>
      </trkpt>
      <trkpt lat="43.43988" lon="5.90197">
        <ele>308.24</ele>
        <time>2019-02-24T09:57:54Z</time>
      </trkpt>
      <trkpt lat="43.43988" lon="5.90202">
        <ele>308.24</ele>
        <time>2019-02-24T09:57:55Z</time>
      </trkpt>
      <trkpt lat="43.43988" lon="5.90205">
        <ele>308.24</ele>
        <time>2019-02-24T09:57:56Z</time>
      </trkpt>
      <trkpt lat="43.43985" lon="5.90248">
        <ele>307.28</ele>
        <time>2019-02-24T09:58:08Z</time>
      </trkpt>
      <trkpt lat="43.43957" lon="5.90257">
        <ele>306.32</ele>
        <time>2019-02-24T09:58:19Z</time>
      </trkpt>
      <trkpt lat="43.43936" lon="5.90251">
        <ele>303.91</ele>
        <time>2019-02-24T09:58:25Z</time>
      </trkpt>
      <trkpt lat="43.43915" lon="5.90248">
        <ele>302.47</ele>
        <time>2019-02-24T09:58:31Z</time>
      </trkpt>
      <trkpt lat="43.43906" lon="5.9025">
        <ele>301.51</ele>
        <time>2019-02-24T09:58:33Z</time>
      </trkpt>
      <trkpt lat="43.43887" lon="5.90256">
        <ele>300.07</ele>
        <time>2019-02-24T09:58:37Z</time>
      </trkpt>
      <trkpt lat="43.43884" lon="5.90257">
        <ele>300.07</ele>
        <time>2019-02-24T09:58:38Z</time>
      </trkpt>
      <trkpt lat="43.43877" lon="5.90248">
        <ele>300.07</ele>
        <time>2019-02-24T09:58:42Z</time>
      </trkpt>
      <trkpt lat="43.43879" lon="5.90207">
        <ele>300.55</ele>
        <time>2019-02-24T09:58:53Z</time>
      </trkpt>
      <trkpt lat="43.43877" lon="5.90203">
        <ele>300.55</ele>
        <time>2019-02-24T09:58:55Z</time>
      </trkpt>
      <trkpt lat="43.43874" lon="5.90202">
        <ele>300.55</ele>
        <time>2019-02-24T09:58:56Z</time>
      </trkpt>
      <trkpt lat="43.43873" lon="5.90202">
        <ele>300.55</ele>
        <time>2019-02-24T09:58:57Z</time>
      </trkpt>
      <trkpt lat="43.43872" lon="5.90203">
        <ele>300.55</ele>
        <time>2019-02-24T09:58:58Z</time>
      </trkpt>
      <trkpt lat="43.43871" lon="5.90205">
        <ele>300.55</ele>
        <time>2019-02-24T09:58:59Z</time>
      </trkpt>
      <trkpt lat="43.4387" lon="5.90237">
        <ele>298.63</ele>
        <time>2019-02-24T09:59:05Z</time>
      </trkpt>
      <trkpt lat="43.43869" lon="5.90257">
        <ele>298.15</ele>
        <time>2019-02-24T09:59:08Z</time>
      </trkpt>
      <trkpt lat="43.4386" lon="5.90282">
        <ele>298.15</ele>
        <time>2019-02-24T09:59:13Z</time>
      </trkpt>
      <trkpt lat="43.43847" lon="5.903">
        <ele>297.67</ele>
        <time>2019-02-24T09:59:17Z</time>
      </trkpt>
      <trkpt lat="43.43833" lon="5.90346">
        <ele>296.22</ele>
        <time>2019-02-24T09:59:28Z</time>
      </trkpt>
      <trkpt lat="43.43839" lon="5.90354">
        <ele>296.22</ele>
        <time>2019-02-24T09:59:40Z</time>
      </trkpt>
      <trkpt lat="43.43838" lon="5.90353">
        <ele>296.22</ele>
        <time>2019-02-24T09:59:53Z</time>
      </trkpt>
      <trkpt lat="43.43836" lon="5.90353">
        <ele>296.22</ele>
        <time>2019-02-24T09:59:54Z</time>
      </trkpt>
      <trkpt lat="43.43819" lon="5.90326">
        <ele>295.74</ele>
        <time>2019-02-24T10:00:08Z</time>
      </trkpt>
      <trkpt lat="43.43787" lon="5.90276">
        <ele>294.78</ele>
        <time>2019-02-24T10:00:27Z</time>
      </trkpt>
      <trkpt lat="43.4376" lon="5.90235">
        <ele>294.3</ele>
        <time>2019-02-24T10:00:41Z</time>
      </trkpt>
      <trkpt lat="43.4373" lon="5.90186">
        <ele>293.82</ele>
        <time>2019-02-24T10:00:56Z</time>
      </trkpt>
      <trkpt lat="43.43696" lon="5.90132">
        <ele>292.86</ele>
        <time>2019-02-24T10:01:12Z</time>
      </trkpt>
      <trkpt lat="43.4369" lon="5.9008">
        <ele>291.42</ele>
        <time>2019-02-24T10:01:21Z</time>
      </trkpt>
      <trkpt lat="43.43692" lon="5.9006">
        <ele>291.42</ele>
        <time>2019-02-24T10:01:24Z</time>
      </trkpt>
      <trkpt lat="43.43694" lon="5.90054">
        <ele>290.94</ele>
        <time>2019-02-24T10:01:25Z</time>
      </trkpt>
      <trkpt lat="43.43695" lon="5.90048">
        <ele>290.94</ele>
        <time>2019-02-24T10:01:26Z</time>
      </trkpt>
      <trkpt lat="43.43698" lon="5.90043">
        <ele>290.94</ele>
        <time>2019-02-24T10:01:27Z</time>
      </trkpt>
      <trkpt lat="43.437" lon="5.90039">
        <ele>290.94</ele>
        <time>2019-02-24T10:01:28Z</time>
      </trkpt>
      <trkpt lat="43.43739" lon="5.89993">
        <ele>289.49</ele>
        <time>2019-02-24T10:01:41Z</time>
      </trkpt>
      <trkpt lat="43.43742" lon="5.89989">
        <ele>289.49</ele>
        <time>2019-02-24T10:01:42Z</time>
      </trkpt>
      <trkpt lat="43.43745" lon="5.89985">
        <ele>289.49</ele>
        <time>2019-02-24T10:01:43Z</time>
      </trkpt>
      <trkpt lat="43.43747" lon="5.89979">
        <ele>289.49</ele>
        <time>2019-02-24T10:01:44Z</time>
      </trkpt>
      <trkpt lat="43.43749" lon="5.89974">
        <ele>289.49</ele>
        <time>2019-02-24T10:01:45Z</time>
      </trkpt>
      <trkpt lat="43.43751" lon="5.89968">
        <ele>289.49</ele>
        <time>2019-02-24T10:01:46Z</time>
      </trkpt>
      <trkpt lat="43.43752" lon="5.89964">
        <ele>289.01</ele>
        <time>2019-02-24T10:01:47Z</time>
      </trkpt>
      <trkpt lat="43.43753" lon="5.89959">
        <ele>289.01</ele>
        <time>2019-02-24T10:01:48Z</time>
      </trkpt>
      <trkpt lat="43.43753" lon="5.89954">
        <ele>288.53</ele>
        <time>2019-02-24T10:01:49Z</time>
      </trkpt>
      <trkpt lat="43.43753" lon="5.8995">
        <ele>288.53</ele>
        <time>2019-02-24T10:01:50Z</time>
      </trkpt>
      <trkpt lat="43.43751" lon="5.89946">
        <ele>288.53</ele>
        <time>2019-02-24T10:01:51Z</time>
      </trkpt>
      <trkpt lat="43.43749" lon="5.89943">
        <ele>288.05</ele>
        <time>2019-02-24T10:01:52Z</time>
      </trkpt>
      <trkpt lat="43.43747" lon="5.8994">
        <ele>288.05</ele>
        <time>2019-02-24T10:01:53Z</time>
      </trkpt>
      <trkpt lat="43.43745" lon="5.89935">
        <ele>288.05</ele>
        <time>2019-02-24T10:01:54Z</time>
      </trkpt>
      <trkpt lat="43.43745" lon="5.8993">
        <ele>287.57</ele>
        <time>2019-02-24T10:01:55Z</time>
      </trkpt>
      <trkpt lat="43.43744" lon="5.89925">
        <ele>287.57</ele>
        <time>2019-02-24T10:01:56Z</time>
      </trkpt>
      <trkpt lat="43.43744" lon="5.8992">
        <ele>287.57</ele>
        <time>2019-02-24T10:01:57Z</time>
      </trkpt>
      <trkpt lat="43.43745" lon="5.89907">
        <ele>287.57</ele>
        <time>2019-02-24T10:02:00Z</time>
      </trkpt>
      <trkpt lat="43.43746" lon="5.89903">
        <ele>287.57</ele>
        <time>2019-02-24T10:02:01Z</time>
      </trkpt>
      <trkpt lat="43.43748" lon="5.89899">
        <ele>287.57</ele>
        <time>2019-02-24T10:02:02Z</time>
      </trkpt>
      <trkpt lat="43.43751" lon="5.89896">
        <ele>288.05</ele>
        <time>2019-02-24T10:02:03Z</time>
      </trkpt>
      <trkpt lat="43.43753" lon="5.89892">
        <ele>288.05</ele>
        <time>2019-02-24T10:02:04Z</time>
      </trkpt>
      <trkpt lat="43.43757" lon="5.89879">
        <ele>288.05</ele>
        <time>2019-02-24T10:02:07Z</time>
      </trkpt>
      <trkpt lat="43.43756" lon="5.89876">
        <ele>288.05</ele>
        <time>2019-02-24T10:02:08Z</time>
      </trkpt>
      <trkpt lat="43.43751" lon="5.89872">
        <ele>288.05</ele>
        <time>2019-02-24T10:02:10Z</time>
      </trkpt>
      <trkpt lat="43.4375" lon="5.89872">
        <ele>288.05</ele>
        <time>2019-02-24T10:02:11Z</time>
      </trkpt>
      <trkpt lat="43.43747" lon="5.89873">
        <ele>288.05</ele>
        <time>2019-02-24T10:02:12Z</time>
      </trkpt>
      <trkpt lat="43.43743" lon="5.89873">
        <ele>288.05</ele>
        <time>2019-02-24T10:02:13Z</time>
      </trkpt>
      <trkpt lat="43.43698" lon="5.89873">
        <ele>290.46</ele>
        <time>2019-02-24T10:02:30Z</time>
      </trkpt>
      <trkpt lat="43.43662" lon="5.89859">
        <ele>290.94</ele>
        <time>2019-02-24T10:02:44Z</time>
      </trkpt>
      <trkpt lat="43.43622" lon="5.89859">
        <ele>290.94</ele>
        <time>2019-02-24T10:02:58Z</time>
      </trkpt>
      <trkpt lat="43.43615" lon="5.89868">
        <ele>289.97</ele>
        <time>2019-02-24T10:03:02Z</time>
      </trkpt>
      <trkpt lat="43.43615" lon="5.89867">
        <ele>289.97</ele>
        <time>2019-02-24T10:03:04Z</time>
      </trkpt>
      <trkpt lat="43.43616" lon="5.89867">
        <ele>289.97</ele>
        <time>2019-02-24T10:03:05Z</time>
      </trkpt>
      <trkpt lat="43.43614" lon="5.89866">
        <ele>289.97</ele>
        <time>2019-02-24T10:03:11Z</time>
      </trkpt>
      <trkpt lat="43.43607" lon="5.89854">
        <ele>289.97</ele>
        <time>2019-02-24T10:03:20Z</time>
      </trkpt>
      <trkpt lat="43.43605" lon="5.89853">
        <ele>289.97</ele>
        <time>2019-02-24T10:03:21Z</time>
      </trkpt>
      <trkpt lat="43.43603" lon="5.89852">
        <ele>289.97</ele>
        <time>2019-02-24T10:03:22Z</time>
      </trkpt>
      <trkpt lat="43.43578" lon="5.8984">
        <ele>291.42</ele>
        <time>2019-02-24T10:03:35Z</time>
      </trkpt>
      <trkpt lat="43.43574" lon="5.89831">
        <ele>291.9</ele>
        <time>2019-02-24T10:03:43Z</time>
      </trkpt>
      <trkpt lat="43.43573" lon="5.89827">
        <ele>291.9</ele>
        <time>2019-02-24T10:03:45Z</time>
      </trkpt>
      <trkpt lat="43.43575" lon="5.89811">
        <ele>294.3</ele>
        <time>2019-02-24T10:03:59Z</time>
      </trkpt>
      <trkpt lat="43.43573" lon="5.89798">
        <ele>296.22</ele>
        <time>2019-02-24T10:04:13Z</time>
      </trkpt>
      <trkpt lat="43.43571" lon="5.89782">
        <ele>297.67</ele>
        <time>2019-02-24T10:04:25Z</time>
      </trkpt>
      <trkpt lat="43.43566" lon="5.89774">
        <ele>297.67</ele>
        <time>2019-02-24T10:04:42Z</time>
      </trkpt>
      <trkpt lat="43.4356" lon="5.89771">
        <ele>297.67</ele>
        <time>2019-02-24T10:05:00Z</time>
      </trkpt>
      <trkpt lat="43.43556" lon="5.89767">
        <ele>298.15</ele>
        <time>2019-02-24T10:05:08Z</time>
      </trkpt>
      <trkpt lat="43.43531" lon="5.89754">
        <ele>298.63</ele>
        <time>2019-02-24T10:05:18Z</time>
      </trkpt>
      <trkpt lat="43.43499" lon="5.89738">
        <ele>298.63</ele>
        <time>2019-02-24T10:05:34Z</time>
      </trkpt>
      <trkpt lat="43.43473" lon="5.89724">
        <ele>297.67</ele>
        <time>2019-02-24T10:05:46Z</time>
      </trkpt>
      <trkpt lat="43.43462" lon="5.89717">
        <ele>296.7</ele>
        <time>2019-02-24T10:05:59Z</time>
      </trkpt>
      <trkpt lat="43.43464" lon="5.89717">
        <ele>296.7</ele>
        <time>2019-02-24T10:06:14Z</time>
      </trkpt>
      <trkpt lat="43.43481" lon="5.89726">
        <ele>298.15</ele>
        <time>2019-02-24T10:06:30Z</time>
      </trkpt>
      <trkpt lat="43.43511" lon="5.89739">
        <ele>298.63</ele>
        <time>2019-02-24T10:06:44Z</time>
      </trkpt>
      <trkpt lat="43.43543" lon="5.89761">
        <ele>299.11</ele>
        <time>2019-02-24T10:06:58Z</time>
      </trkpt>
      <trkpt lat="43.4356" lon="5.89774">
        <ele>297.67</ele>
        <time>2019-02-24T10:07:04Z</time>
      </trkpt>
      <trkpt lat="43.43569" lon="5.89791">
        <ele>296.7</ele>
        <time>2019-02-24T10:07:11Z</time>
      </trkpt>
      <trkpt lat="43.43571" lon="5.89797">
        <ele>295.26</ele>
        <time>2019-02-24T10:07:14Z</time>
      </trkpt>
      <trkpt lat="43.43571" lon="5.89806">
        <ele>293.82</ele>
        <time>2019-02-24T10:07:18Z</time>
      </trkpt>
      <trkpt lat="43.4357" lon="5.89813">
        <ele>292.38</ele>
        <time>2019-02-24T10:07:21Z</time>
      </trkpt>
      <trkpt lat="43.43596" lon="5.89834">
        <ele>290.94</ele>
        <time>2019-02-24T10:07:33Z</time>
      </trkpt>
      <trkpt lat="43.43607" lon="5.89848">
        <ele>290.94</ele>
        <time>2019-02-24T10:07:38Z</time>
      </trkpt>
      <trkpt lat="43.43607" lon="5.89905">
        <ele>289.01</ele>
        <time>2019-02-24T10:07:52Z</time>
      </trkpt>
      <trkpt lat="43.43631" lon="5.89928">
        <ele>288.53</ele>
        <time>2019-02-24T10:08:02Z</time>
      </trkpt>
      <trkpt lat="43.43679" lon="5.89957">
        <ele>288.53</ele>
        <time>2019-02-24T10:08:17Z</time>
      </trkpt>
      <trkpt lat="43.43698" lon="5.89965">
        <ele>288.05</ele>
        <time>2019-02-24T10:08:26Z</time>
      </trkpt>
      <trkpt lat="43.43705" lon="5.8996">
        <ele>288.05</ele>
        <time>2019-02-24T10:08:31Z</time>
      </trkpt>
      <trkpt lat="43.43737" lon="5.89937">
        <ele>288.05</ele>
        <time>2019-02-24T10:08:46Z</time>
      </trkpt>
      <trkpt lat="43.43741" lon="5.89935">
        <ele>288.05</ele>
        <time>2019-02-24T10:08:48Z</time>
      </trkpt>
      <trkpt lat="43.43747" lon="5.89937">
        <ele>288.05</ele>
        <time>2019-02-24T10:08:52Z</time>
      </trkpt>
      <trkpt lat="43.43753" lon="5.89937">
        <ele>288.05</ele>
        <time>2019-02-24T10:08:55Z</time>
      </trkpt>
      <trkpt lat="43.43755" lon="5.89937">
        <ele>288.05</ele>
        <time>2019-02-24T10:08:56Z</time>
      </trkpt>
      <trkpt lat="43.43757" lon="5.89936">
        <ele>288.05</ele>
        <time>2019-02-24T10:08:57Z</time>
      </trkpt>
      <trkpt lat="43.43759" lon="5.89934">
        <ele>288.05</ele>
        <time>2019-02-24T10:08:58Z</time>
      </trkpt>
      <trkpt lat="43.4376" lon="5.89932">
        <ele>288.05</ele>
        <time>2019-02-24T10:08:59Z</time>
      </trkpt>
      <trkpt lat="43.43762" lon="5.89929">
        <ele>288.05</ele>
        <time>2019-02-24T10:09:00Z</time>
      </trkpt>
      <trkpt lat="43.43763" lon="5.89927">
        <ele>288.05</ele>
        <time>2019-02-24T10:09:01Z</time>
      </trkpt>
      <trkpt lat="43.43765" lon="5.89926">
        <ele>288.05</ele>
        <time>2019-02-24T10:09:02Z</time>
      </trkpt>
      <trkpt lat="43.43799" lon="5.89889">
        <ele>288.05</ele>
        <time>2019-02-24T10:09:17Z</time>
      </trkpt>
      <trkpt lat="43.43805" lon="5.89871">
        <ele>288.05</ele>
        <time>2019-02-24T10:09:22Z</time>
      </trkpt>
      <trkpt lat="43.43816" lon="5.89816">
        <ele>288.05</ele>
        <time>2019-02-24T10:09:36Z</time>
      </trkpt>
      <trkpt lat="43.43845" lon="5.89781">
        <ele>287.09</ele>
        <time>2019-02-24T10:09:47Z</time>
      </trkpt>
      <trkpt lat="43.43904" lon="5.89785">
        <ele>286.13</ele>
        <time>2019-02-24T10:10:01Z</time>
      </trkpt>
      <trkpt lat="43.43952" lon="5.89787">
        <ele>286.13</ele>
        <time>2019-02-24T10:10:14Z</time>
      </trkpt>
      <trkpt lat="43.4398" lon="5.898">
        <ele>286.13</ele>
        <time>2019-02-24T10:10:22Z</time>
      </trkpt>
      <trkpt lat="43.43984" lon="5.89801">
        <ele>286.13</ele>
        <time>2019-02-24T10:10:23Z</time>
      </trkpt>
      <trkpt lat="43.44001" lon="5.89803">
        <ele>286.13</ele>
        <time>2019-02-24T10:10:27Z</time>
      </trkpt>
      <trkpt lat="43.44033" lon="5.89773">
        <ele>286.13</ele>
        <time>2019-02-24T10:10:40Z</time>
      </trkpt>
      <trkpt lat="43.44067" lon="5.89742">
        <ele>288.05</ele>
        <time>2019-02-24T10:10:52Z</time>
      </trkpt>
      <trkpt lat="43.44101" lon="5.89702">
        <ele>289.01</ele>
        <time>2019-02-24T10:11:07Z</time>
      </trkpt>
      <trkpt lat="43.44104" lon="5.8963">
        <ele>289.01</ele>
        <time>2019-02-24T10:11:22Z</time>
      </trkpt>
      <trkpt lat="43.44094" lon="5.89564">
        <ele>291.42</ele>
        <time>2019-02-24T10:11:40Z</time>
      </trkpt>
      <trkpt lat="43.44085" lon="5.89502">
        <ele>291.42</ele>
        <time>2019-02-24T10:11:57Z</time>
      </trkpt>
      <trkpt lat="43.441" lon="5.89465">
        <ele>291.9</ele>
        <time>2019-02-24T10:12:09Z</time>
      </trkpt>
      <trkpt lat="43.44125" lon="5.89424">
        <ele>292.86</ele>
        <time>2019-02-24T10:12:24Z</time>
      </trkpt>
      <trkpt lat="43.44157" lon="5.89412">
        <ele>294.3</ele>
        <time>2019-02-24T10:12:37Z</time>
      </trkpt>
      <trkpt lat="43.44201" lon="5.89412">
        <ele>297.18</ele>
        <time>2019-02-24T10:12:52Z</time>
      </trkpt>
      <trkpt lat="43.44235" lon="5.89402">
        <ele>298.63</ele>
        <time>2019-02-24T10:13:05Z</time>
      </trkpt>
      <trkpt lat="43.44257" lon="5.8937">
        <ele>299.11</ele>
        <time>2019-02-24T10:13:16Z</time>
      </trkpt>
      <trkpt lat="43.44281" lon="5.89308">
        <ele>300.07</ele>
        <time>2019-02-24T10:13:32Z</time>
      </trkpt>
      <trkpt lat="43.44305" lon="5.89255">
        <ele>301.51</ele>
        <time>2019-02-24T10:13:46Z</time>
      </trkpt>
      <trkpt lat="43.44318" lon="5.89197">
        <ele>301.99</ele>
        <time>2019-02-24T10:13:59Z</time>
      </trkpt>
      <trkpt lat="43.44334" lon="5.89123">
        <ele>301.99</ele>
        <time>2019-02-24T10:14:15Z</time>
      </trkpt>
      <trkpt lat="43.44353" lon="5.89037">
        <ele>302.47</ele>
        <time>2019-02-24T10:14:32Z</time>
      </trkpt>
      <trkpt lat="43.44367" lon="5.88957">
        <ele>302.95</ele>
        <time>2019-02-24T10:14:49Z</time>
      </trkpt>
      <trkpt lat="43.44372" lon="5.88897">
        <ele>303.43</ele>
        <time>2019-02-24T10:15:02Z</time>
      </trkpt>
      <trkpt lat="43.4438" lon="5.88826">
        <ele>303.91</ele>
        <time>2019-02-24T10:15:18Z</time>
      </trkpt>
      <trkpt lat="43.44406" lon="5.88765">
        <ele>305.84</ele>
        <time>2019-02-24T10:15:35Z</time>
      </trkpt>
      <trkpt lat="43.44443" lon="5.88734">
        <ele>306.8</ele>
        <time>2019-02-24T10:15:50Z</time>
      </trkpt>
      <trkpt lat="43.44476" lon="5.88725">
        <ele>308.24</ele>
        <time>2019-02-24T10:16:04Z</time>
      </trkpt>
      <trkpt lat="43.44501" lon="5.88714">
        <ele>312.09</ele>
        <time>2019-02-24T10:16:16Z</time>
      </trkpt>
      <trkpt lat="43.44531" lon="5.88685">
        <ele>314.97</ele>
        <time>2019-02-24T10:16:30Z</time>
      </trkpt>
      <trkpt lat="43.44547" lon="5.88669">
        <ele>314.97</ele>
        <time>2019-02-24T10:16:40Z</time>
      </trkpt>
      <trkpt lat="43.44547" lon="5.88669">
        <ele>314.97</ele>
        <time>2019-02-24T10:16:41Z</time>
      </trkpt>
      <trkpt lat="43.44546" lon="5.88669">
        <ele>314.97</ele>
        <time>2019-02-24T10:16:42Z</time>
      </trkpt>
      <trkpt lat="43.44522" lon="5.88655">
        <ele>316.41</ele>
        <time>2019-02-24T10:16:57Z</time>
      </trkpt>
      <trkpt lat="43.44492" lon="5.88638">
        <ele>317.85</ele>
        <time>2019-02-24T10:17:13Z</time>
      </trkpt>
      <trkpt lat="43.44449" lon="5.88624">
        <ele>319.78</ele>
        <time>2019-02-24T10:17:29Z</time>
      </trkpt>
      <trkpt lat="43.44416" lon="5.88615">
        <ele>320.74</ele>
        <time>2019-02-24T10:17:42Z</time>
      </trkpt>
      <trkpt lat="43.44376" lon="5.88615">
        <ele>322.18</ele>
        <time>2019-02-24T10:17:57Z</time>
      </trkpt>
      <trkpt lat="43.44339" lon="5.88623">
        <ele>323.62</ele>
        <time>2019-02-24T10:18:14Z</time>
      </trkpt>
      <trkpt lat="43.44338" lon="5.88627">
        <ele>324.1</ele>
        <time>2019-02-24T10:18:16Z</time>
      </trkpt>
      <trkpt lat="43.44337" lon="5.88629">
        <ele>324.1</ele>
        <time>2019-02-24T10:18:17Z</time>
      </trkpt>
      <trkpt lat="43.44337" lon="5.88631">
        <ele>324.1</ele>
        <time>2019-02-24T10:18:18Z</time>
      </trkpt>
      <trkpt lat="43.44335" lon="5.88633">
        <ele>324.1</ele>
        <time>2019-02-24T10:18:19Z</time>
      </trkpt>
      <trkpt lat="43.44323" lon="5.8865">
        <ele>323.14</ele>
        <time>2019-02-24T10:18:32Z</time>
      </trkpt>
      <trkpt lat="43.44325" lon="5.88649">
        <ele>323.14</ele>
        <time>2019-02-24T10:18:40Z</time>
      </trkpt>
      <trkpt lat="43.44325" lon="5.88645">
        <ele>323.14</ele>
        <time>2019-02-24T10:18:41Z</time>
      </trkpt>
      <trkpt lat="43.44325" lon="5.88643">
        <ele>323.14</ele>
        <time>2019-02-24T10:18:42Z</time>
      </trkpt>
      <trkpt lat="43.44326" lon="5.8864">
        <ele>323.14</ele>
        <time>2019-02-24T10:18:43Z</time>
      </trkpt>
      <trkpt lat="43.44326" lon="5.88637">
        <ele>323.14</ele>
        <time>2019-02-24T10:18:44Z</time>
      </trkpt>
      <trkpt lat="43.4433" lon="5.88626">
        <ele>323.14</ele>
        <time>2019-02-24T10:18:52Z</time>
      </trkpt>
      <trkpt lat="43.44331" lon="5.88625">
        <ele>323.14</ele>
        <time>2019-02-24T10:18:53Z</time>
      </trkpt>
      <trkpt lat="43.44367" lon="5.88607">
        <ele>323.14</ele>
        <time>2019-02-24T10:19:06Z</time>
      </trkpt>
      <trkpt lat="43.44408" lon="5.886">
        <ele>321.7</ele>
        <time>2019-02-24T10:19:18Z</time>
      </trkpt>
      <trkpt lat="43.44457" lon="5.88601">
        <ele>319.78</ele>
        <time>2019-02-24T10:19:31Z</time>
      </trkpt>
      <trkpt lat="43.44492" lon="5.88607">
        <ele>318.33</ele>
        <time>2019-02-24T10:19:38Z</time>
      </trkpt>
      <trkpt lat="43.44528" lon="5.88614">
        <ele>317.37</ele>
        <time>2019-02-24T10:19:45Z</time>
      </trkpt>
      <trkpt lat="43.44532" lon="5.88617">
        <ele>316.89</ele>
        <time>2019-02-24T10:19:46Z</time>
      </trkpt>
      <trkpt lat="43.44572" lon="5.88646">
        <ele>315.93</ele>
        <time>2019-02-24T10:19:56Z</time>
      </trkpt>
      <trkpt lat="43.44582" lon="5.88646">
        <ele>315.93</ele>
        <time>2019-02-24T10:19:58Z</time>
      </trkpt>
      <trkpt lat="43.44587" lon="5.88645">
        <ele>315.45</ele>
        <time>2019-02-24T10:19:59Z</time>
      </trkpt>
      <trkpt lat="43.44591" lon="5.88645">
        <ele>314.97</ele>
        <time>2019-02-24T10:20:00Z</time>
      </trkpt>
      <trkpt lat="43.44592" lon="5.88643">
        <ele>314.01</ele>
        <time>2019-02-24T10:20:01Z</time>
      </trkpt>
      <trkpt lat="43.44594" lon="5.88643">
        <ele>314.01</ele>
        <time>2019-02-24T10:20:02Z</time>
      </trkpt>
      <trkpt lat="43.44593" lon="5.88642">
        <ele>313.05</ele>
        <time>2019-02-24T10:20:04Z</time>
      </trkpt>
      <trkpt lat="43.44589" lon="5.8864">
        <ele>312.57</ele>
        <time>2019-02-24T10:20:06Z</time>
      </trkpt>
      <trkpt lat="43.44583" lon="5.88635">
        <ele>312.57</ele>
        <time>2019-02-24T10:20:07Z</time>
      </trkpt>
      <trkpt lat="43.4458" lon="5.88631">
        <ele>312.09</ele>
        <time>2019-02-24T10:20:08Z</time>
      </trkpt>
      <trkpt lat="43.44576" lon="5.88626">
        <ele>311.6</ele>
        <time>2019-02-24T10:20:09Z</time>
      </trkpt>
      <trkpt lat="43.44573" lon="5.88621">
        <ele>310.64</ele>
        <time>2019-02-24T10:20:10Z</time>
      </trkpt>
      <trkpt lat="43.4457" lon="5.88615">
        <ele>310.16</ele>
        <time>2019-02-24T10:20:11Z</time>
      </trkpt>
      <trkpt lat="43.44564" lon="5.88604">
        <ele>308.72</ele>
        <time>2019-02-24T10:20:13Z</time>
      </trkpt>
      <trkpt lat="43.44563" lon="5.88597">
        <ele>308.24</ele>
        <time>2019-02-24T10:20:14Z</time>
      </trkpt>
      <trkpt lat="43.44562" lon="5.88589">
        <ele>307.28</ele>
        <time>2019-02-24T10:20:15Z</time>
      </trkpt>
      <trkpt lat="43.44562" lon="5.88582">
        <ele>306.8</ele>
        <time>2019-02-24T10:20:16Z</time>
      </trkpt>
      <trkpt lat="43.44563" lon="5.88573">
        <ele>305.84</ele>
        <time>2019-02-24T10:20:17Z</time>
      </trkpt>
      <trkpt lat="43.44568" lon="5.88537">
        <ele>305.36</ele>
        <time>2019-02-24T10:20:21Z</time>
      </trkpt>
      <trkpt lat="43.44578" lon="5.88462">
        <ele>303.91</ele>
        <time>2019-02-24T10:20:29Z</time>
      </trkpt>
      <trkpt lat="43.44578" lon="5.88453">
        <ele>303.91</ele>
        <time>2019-02-24T10:20:30Z</time>
      </trkpt>
      <trkpt lat="43.44575" lon="5.88362">
        <ele>302.95</ele>
        <time>2019-02-24T10:20:43Z</time>
      </trkpt>
      <trkpt lat="43.44575" lon="5.88355">
        <ele>302.95</ele>
        <time>2019-02-24T10:20:44Z</time>
      </trkpt>
      <trkpt lat="43.44568" lon="5.88299">
        <ele>301.99</ele>
        <time>2019-02-24T10:20:57Z</time>
      </trkpt>
      <trkpt lat="43.44568" lon="5.8824">
        <ele>302.47</ele>
        <time>2019-02-24T10:21:10Z</time>
      </trkpt>
      <trkpt lat="43.44581" lon="5.88168">
        <ele>302.47</ele>
        <time>2019-02-24T10:21:25Z</time>
      </trkpt>
      <trkpt lat="43.44587" lon="5.88115">
        <ele>301.99</ele>
        <time>2019-02-24T10:21:36Z</time>
      </trkpt>
      <trkpt lat="43.44588" lon="5.8811">
        <ele>302.47</ele>
        <time>2019-02-24T10:21:37Z</time>
      </trkpt>
      <trkpt lat="43.44606" lon="5.88023">
        <ele>303.43</ele>
        <time>2019-02-24T10:21:53Z</time>
      </trkpt>
      <trkpt lat="43.44621" lon="5.87957">
        <ele>303.91</ele>
        <time>2019-02-24T10:22:07Z</time>
      </trkpt>
      <trkpt lat="43.44638" lon="5.87884">
        <ele>301.99</ele>
        <time>2019-02-24T10:22:18Z</time>
      </trkpt>
      <trkpt lat="43.4465" lon="5.87847">
        <ele>301.99</ele>
        <time>2019-02-24T10:22:23Z</time>
      </trkpt>
      <trkpt lat="43.44686" lon="5.87734">
        <ele>299.59</ele>
        <time>2019-02-24T10:22:39Z</time>
      </trkpt>
      <trkpt lat="43.44713" lon="5.87647">
        <ele>299.11</ele>
        <time>2019-02-24T10:22:53Z</time>
      </trkpt>
      <trkpt lat="43.44732" lon="5.87558">
        <ele>298.15</ele>
        <time>2019-02-24T10:23:11Z</time>
      </trkpt>
      <trkpt lat="43.44732" lon="5.87557">
        <ele>298.15</ele>
        <time>2019-02-24T10:23:28Z</time>
      </trkpt>
      <trkpt lat="43.44733" lon="5.87556">
        <ele>298.15</ele>
        <time>2019-02-24T10:23:53Z</time>
      </trkpt>
      <trkpt lat="43.44733" lon="5.87554">
        <ele>298.15</ele>
        <time>2019-02-24T10:24:11Z</time>
      </trkpt>
      <trkpt lat="43.44734" lon="5.87552">
        <ele>298.15</ele>
        <time>2019-02-24T10:24:13Z</time>
      </trkpt>
      <trkpt lat="43.44735" lon="5.8755">
        <ele>298.15</ele>
        <time>2019-02-24T10:24:14Z</time>
      </trkpt>
      <trkpt lat="43.44745" lon="5.87501">
        <ele>298.15</ele>
        <time>2019-02-24T10:24:30Z</time>
      </trkpt>
      <trkpt lat="43.44772" lon="5.87436">
        <ele>298.15</ele>
        <time>2019-02-24T10:24:47Z</time>
      </trkpt>
      <trkpt lat="43.44783" lon="5.87408">
        <ele>299.59</ele>
        <time>2019-02-24T10:24:54Z</time>
      </trkpt>
      <trkpt lat="43.44813" lon="5.87342">
        <ele>300.55</ele>
        <time>2019-02-24T10:25:12Z</time>
      </trkpt>
      <trkpt lat="43.44837" lon="5.87332">
        <ele>301.99</ele>
        <time>2019-02-24T10:25:23Z</time>
      </trkpt>
      <trkpt lat="43.4487" lon="5.87297">
        <ele>304.88</ele>
        <time>2019-02-24T10:25:39Z</time>
      </trkpt>
      <trkpt lat="43.44894" lon="5.87247">
        <ele>305.36</ele>
        <time>2019-02-24T10:25:56Z</time>
      </trkpt>
      <trkpt lat="43.44902" lon="5.87188">
        <ele>305.36</ele>
        <time>2019-02-24T10:26:09Z</time>
      </trkpt>
      <trkpt lat="43.44908" lon="5.87109">
        <ele>305.84</ele>
        <time>2019-02-24T10:26:27Z</time>
      </trkpt>
      <trkpt lat="43.44935" lon="5.8708">
        <ele>305.84</ele>
        <time>2019-02-24T10:26:36Z</time>
      </trkpt>
      <trkpt lat="43.44981" lon="5.87036">
        <ele>307.28</ele>
        <time>2019-02-24T10:26:52Z</time>
      </trkpt>
      <trkpt lat="43.44974" lon="5.86986">
        <ele>309.2</ele>
        <time>2019-02-24T10:27:05Z</time>
      </trkpt>
      <trkpt lat="43.44972" lon="5.86923">
        <ele>310.16</ele>
        <time>2019-02-24T10:27:19Z</time>
      </trkpt>
      <trkpt lat="43.44987" lon="5.86851">
        <ele>311.6</ele>
        <time>2019-02-24T10:27:37Z</time>
      </trkpt>
      <trkpt lat="43.4501" lon="5.86815">
        <ele>311.6</ele>
        <time>2019-02-24T10:27:46Z</time>
      </trkpt>
      <trkpt lat="43.45014" lon="5.86811">
        <ele>310.16</ele>
        <time>2019-02-24T10:27:47Z</time>
      </trkpt>
      <trkpt lat="43.45018" lon="5.86806">
        <ele>310.16</ele>
        <time>2019-02-24T10:27:48Z</time>
      </trkpt>
      <trkpt lat="43.45039" lon="5.86785">
        <ele>309.68</ele>
        <time>2019-02-24T10:27:53Z</time>
      </trkpt>
      <trkpt lat="43.45094" lon="5.86707">
        <ele>309.2</ele>
        <time>2019-02-24T10:28:08Z</time>
      </trkpt>
      <trkpt lat="43.451" lon="5.86697">
        <ele>309.2</ele>
        <time>2019-02-24T10:28:10Z</time>
      </trkpt>
      <trkpt lat="43.45128" lon="5.86646">
        <ele>308.24</ele>
        <time>2019-02-24T10:28:23Z</time>
      </trkpt>
      <trkpt lat="43.45139" lon="5.86594">
        <ele>308.72</ele>
        <time>2019-02-24T10:28:36Z</time>
      </trkpt>
      <trkpt lat="43.45108" lon="5.86561">
        <ele>309.68</ele>
        <time>2019-02-24T10:28:48Z</time>
      </trkpt>
      <trkpt lat="43.45055" lon="5.86514">
        <ele>311.6</ele>
        <time>2019-02-24T10:29:07Z</time>
      </trkpt>
      <trkpt lat="43.45008" lon="5.86452">
        <ele>313.05</ele>
        <time>2019-02-24T10:29:25Z</time>
      </trkpt>
      <trkpt lat="43.4498" lon="5.86394">
        <ele>314.49</ele>
        <time>2019-02-24T10:29:39Z</time>
      </trkpt>
      <trkpt lat="43.4494" lon="5.86363">
        <ele>314.97</ele>
        <time>2019-02-24T10:29:53Z</time>
      </trkpt>
      <trkpt lat="43.44888" lon="5.86331">
        <ele>315.93</ele>
        <time>2019-02-24T10:30:09Z</time>
      </trkpt>
      <trkpt lat="43.4486" lon="5.86288">
        <ele>316.89</ele>
        <time>2019-02-24T10:30:21Z</time>
      </trkpt>
      <trkpt lat="43.44831" lon="5.86245">
        <ele>318.33</ele>
        <time>2019-02-24T10:30:34Z</time>
      </trkpt>
      <trkpt lat="43.44813" lon="5.862">
        <ele>319.78</ele>
        <time>2019-02-24T10:30:48Z</time>
      </trkpt>
      <trkpt lat="43.44847" lon="5.86142">
        <ele>320.26</ele>
        <time>2019-02-24T10:31:04Z</time>
      </trkpt>
      <trkpt lat="43.4485" lon="5.86137">
        <ele>320.26</ele>
        <time>2019-02-24T10:31:05Z</time>
      </trkpt>
      <trkpt lat="43.44853" lon="5.86132">
        <ele>320.26</ele>
        <time>2019-02-24T10:31:06Z</time>
      </trkpt>
      <trkpt lat="43.44856" lon="5.86125">
        <ele>320.26</ele>
        <time>2019-02-24T10:31:07Z</time>
      </trkpt>
      <trkpt lat="43.44857" lon="5.86118">
        <ele>320.26</ele>
        <time>2019-02-24T10:31:08Z</time>
      </trkpt>
      <trkpt lat="43.44857" lon="5.8611">
        <ele>320.26</ele>
        <time>2019-02-24T10:31:09Z</time>
      </trkpt>
      <trkpt lat="43.44856" lon="5.86102">
        <ele>320.26</ele>
        <time>2019-02-24T10:31:10Z</time>
      </trkpt>
      <trkpt lat="43.44853" lon="5.86097">
        <ele>320.26</ele>
        <time>2019-02-24T10:31:11Z</time>
      </trkpt>
      <trkpt lat="43.4485" lon="5.86092">
        <ele>320.26</ele>
        <time>2019-02-24T10:31:12Z</time>
      </trkpt>
      <trkpt lat="43.44846" lon="5.86089">
        <ele>320.26</ele>
        <time>2019-02-24T10:31:13Z</time>
      </trkpt>
      <trkpt lat="43.44842" lon="5.86088">
        <ele>320.26</ele>
        <time>2019-02-24T10:31:14Z</time>
      </trkpt>
      <trkpt lat="43.44837" lon="5.86086">
        <ele>320.26</ele>
        <time>2019-02-24T10:31:15Z</time>
      </trkpt>
      <trkpt lat="43.44834" lon="5.86085">
        <ele>320.26</ele>
        <time>2019-02-24T10:31:16Z</time>
      </trkpt>
      <trkpt lat="43.44829" lon="5.86083">
        <ele>320.26</ele>
        <time>2019-02-24T10:31:17Z</time>
      </trkpt>
      <trkpt lat="43.4482" lon="5.8608">
        <ele>320.26</ele>
        <time>2019-02-24T10:31:19Z</time>
      </trkpt>
      <trkpt lat="43.44816" lon="5.86079">
        <ele>320.26</ele>
        <time>2019-02-24T10:31:20Z</time>
      </trkpt>
      <trkpt lat="43.44811" lon="5.86078">
        <ele>320.26</ele>
        <time>2019-02-24T10:31:21Z</time>
      </trkpt>
      <trkpt lat="43.44806" lon="5.86078">
        <ele>320.26</ele>
        <time>2019-02-24T10:31:22Z</time>
      </trkpt>
      <trkpt lat="43.44801" lon="5.86078">
        <ele>320.26</ele>
        <time>2019-02-24T10:31:23Z</time>
      </trkpt>
      <trkpt lat="43.44742" lon="5.86067">
        <ele>321.7</ele>
        <time>2019-02-24T10:31:37Z</time>
      </trkpt>
      <trkpt lat="43.44697" lon="5.8605">
        <ele>322.66</ele>
        <time>2019-02-24T10:31:54Z</time>
      </trkpt>
      <trkpt lat="43.44663" lon="5.86038">
        <ele>324.1</ele>
        <time>2019-02-24T10:32:10Z</time>
      </trkpt>
      <trkpt lat="43.44612" lon="5.86016">
        <ele>326.02</ele>
        <time>2019-02-24T10:32:24Z</time>
      </trkpt>
      <trkpt lat="43.44563" lon="5.85998">
        <ele>327.47</ele>
        <time>2019-02-24T10:32:39Z</time>
      </trkpt>
      <trkpt lat="43.44514" lon="5.85978">
        <ele>328.91</ele>
        <time>2019-02-24T10:32:55Z</time>
      </trkpt>
      <trkpt lat="43.44457" lon="5.85954">
        <ele>331.79</ele>
        <time>2019-02-24T10:33:13Z</time>
      </trkpt>
      <trkpt lat="43.44435" lon="5.85942">
        <ele>332.27</ele>
        <time>2019-02-24T10:33:22Z</time>
      </trkpt>
      <trkpt lat="43.44432" lon="5.85941">
        <ele>332.27</ele>
        <time>2019-02-24T10:33:23Z</time>
      </trkpt>
      <trkpt lat="43.4443" lon="5.8594">
        <ele>332.27</ele>
        <time>2019-02-24T10:33:24Z</time>
      </trkpt>
      <trkpt lat="43.44424" lon="5.8594">
        <ele>332.27</ele>
        <time>2019-02-24T10:33:33Z</time>
      </trkpt>
      <trkpt lat="43.44423" lon="5.85943">
        <ele>332.27</ele>
        <time>2019-02-24T10:33:34Z</time>
      </trkpt>
      <trkpt lat="43.44423" lon="5.85947">
        <ele>332.75</ele>
        <time>2019-02-24T10:33:35Z</time>
      </trkpt>
      <trkpt lat="43.44422" lon="5.85951">
        <ele>332.75</ele>
        <time>2019-02-24T10:33:36Z</time>
      </trkpt>
      <trkpt lat="43.44421" lon="5.85956">
        <ele>332.75</ele>
        <time>2019-02-24T10:33:37Z</time>
      </trkpt>
      <trkpt lat="43.4442" lon="5.85961">
        <ele>332.75</ele>
        <time>2019-02-24T10:33:38Z</time>
      </trkpt>
      <trkpt lat="43.44418" lon="5.85966">
        <ele>332.75</ele>
        <time>2019-02-24T10:33:39Z</time>
      </trkpt>
      <trkpt lat="43.44417" lon="5.85971">
        <ele>332.75</ele>
        <time>2019-02-24T10:33:40Z</time>
      </trkpt>
      <trkpt lat="43.44394" lon="5.86063">
        <ele>333.23</ele>
        <time>2019-02-24T10:33:56Z</time>
      </trkpt>
      <trkpt lat="43.44361" lon="5.86145">
        <ele>336.12</ele>
        <time>2019-02-24T10:34:12Z</time>
      </trkpt>
      <trkpt lat="43.44311" lon="5.86197">
        <ele>338.52</ele>
        <time>2019-02-24T10:34:29Z</time>
      </trkpt>
      <trkpt lat="43.44241" lon="5.86224">
        <ele>339.48</ele>
        <time>2019-02-24T10:34:47Z</time>
      </trkpt>
      <trkpt lat="43.44155" lon="5.86256">
        <ele>339.96</ele>
        <time>2019-02-24T10:35:06Z</time>
      </trkpt>
      <trkpt lat="43.44092" lon="5.86279">
        <ele>341.41</ele>
        <time>2019-02-24T10:35:22Z</time>
      </trkpt>
      <trkpt lat="43.44053" lon="5.86294">
        <ele>341.41</ele>
        <time>2019-02-24T10:35:32Z</time>
      </trkpt>
      <trkpt lat="43.44049" lon="5.86293">
        <ele>341.41</ele>
        <time>2019-02-24T10:35:33Z</time>
      </trkpt>
      <trkpt lat="43.44046" lon="5.8629">
        <ele>341.89</ele>
        <time>2019-02-24T10:35:34Z</time>
      </trkpt>
      <trkpt lat="43.44044" lon="5.86286">
        <ele>341.89</ele>
        <time>2019-02-24T10:35:35Z</time>
      </trkpt>
      <trkpt lat="43.44043" lon="5.86284">
        <ele>342.85</ele>
        <time>2019-02-24T10:35:36Z</time>
      </trkpt>
      <trkpt lat="43.44033" lon="5.86244">
        <ele>345.73</ele>
        <time>2019-02-24T10:35:46Z</time>
      </trkpt>
      <trkpt lat="43.44024" lon="5.86191">
        <ele>348.62</ele>
        <time>2019-02-24T10:36:00Z</time>
      </trkpt>
      <trkpt lat="43.44023" lon="5.86187">
        <ele>348.62</ele>
        <time>2019-02-24T10:36:01Z</time>
      </trkpt>
      <trkpt lat="43.44023" lon="5.86183">
        <ele>349.1</ele>
        <time>2019-02-24T10:36:02Z</time>
      </trkpt>
      <trkpt lat="43.44023" lon="5.86179">
        <ele>349.1</ele>
        <time>2019-02-24T10:36:03Z</time>
      </trkpt>
      <trkpt lat="43.44021" lon="5.86166">
        <ele>349.1</ele>
        <time>2019-02-24T10:36:07Z</time>
      </trkpt>
      <trkpt lat="43.4402" lon="5.86166">
        <ele>349.1</ele>
        <time>2019-02-24T10:36:08Z</time>
      </trkpt>
      <trkpt lat="43.43989" lon="5.86149">
        <ele>350.54</ele>
        <time>2019-02-24T10:36:21Z</time>
      </trkpt>
      <trkpt lat="43.43971" lon="5.86091">
        <ele>352.46</ele>
        <time>2019-02-24T10:36:36Z</time>
      </trkpt>
      <trkpt lat="43.43963" lon="5.86071">
        <ele>352.94</ele>
        <time>2019-02-24T10:36:42Z</time>
      </trkpt>
      <trkpt lat="43.43964" lon="5.86068">
        <ele>352.94</ele>
        <time>2019-02-24T10:36:43Z</time>
      </trkpt>
      <trkpt lat="43.43971" lon="5.86042">
        <ele>353.42</ele>
        <time>2019-02-24T10:36:54Z</time>
      </trkpt>
      <trkpt lat="43.43971" lon="5.86033">
        <ele>353.42</ele>
        <time>2019-02-24T10:37:21Z</time>
      </trkpt>
      <trkpt lat="43.43969" lon="5.86033">
        <ele>353.42</ele>
        <time>2019-02-24T10:37:56Z</time>
      </trkpt>
      <trkpt lat="43.43969" lon="5.86031">
        <ele>353.42</ele>
        <time>2019-02-24T10:38:21Z</time>
      </trkpt>
      <trkpt lat="43.43965" lon="5.86029">
        <ele>353.9</ele>
        <time>2019-02-24T10:38:44Z</time>
      </trkpt>
      <trkpt lat="43.43968" lon="5.86033">
        <ele>353.9</ele>
        <time>2019-02-24T10:39:11Z</time>
      </trkpt>
      <trkpt lat="43.43966" lon="5.86033">
        <ele>353.9</ele>
        <time>2019-02-24T10:39:39Z</time>
      </trkpt>
      <trkpt lat="43.43966" lon="5.8603">
        <ele>353.9</ele>
        <time>2019-02-24T10:40:01Z</time>
      </trkpt>
      <trkpt lat="43.43969" lon="5.86032">
        <ele>353.9</ele>
        <time>2019-02-24T10:40:30Z</time>
      </trkpt>
      <trkpt lat="43.4397" lon="5.86033">
        <ele>353.9</ele>
        <time>2019-02-24T10:41:01Z</time>
      </trkpt>
      <trkpt lat="43.4397" lon="5.86032">
        <ele>354.38</ele>
        <time>2019-02-24T10:41:35Z</time>
      </trkpt>
      <trkpt lat="43.43971" lon="5.86032">
        <ele>354.86</ele>
        <time>2019-02-24T10:42:08Z</time>
      </trkpt>
      <trkpt lat="43.43972" lon="5.86032">
        <ele>354.86</ele>
        <time>2019-02-24T10:42:38Z</time>
      </trkpt>
      <trkpt lat="43.43972" lon="5.86032">
        <ele>354.86</ele>
        <time>2019-02-24T10:43:06Z</time>
      </trkpt>
      <trkpt lat="43.43974" lon="5.8603">
        <ele>354.86</ele>
        <time>2019-02-24T10:43:40Z</time>
      </trkpt>
      <trkpt lat="43.43976" lon="5.86031">
        <ele>354.86</ele>
        <time>2019-02-24T10:44:14Z</time>
      </trkpt>
      <trkpt lat="43.43975" lon="5.86032">
        <ele>354.86</ele>
        <time>2019-02-24T10:44:42Z</time>
      </trkpt>
      <trkpt lat="43.43972" lon="5.86031">
        <ele>355.34</ele>
        <time>2019-02-24T10:45:19Z</time>
      </trkpt>
      <trkpt lat="43.43964" lon="5.86027">
        <ele>355.34</ele>
        <time>2019-02-24T10:45:59Z</time>
      </trkpt>
      <trkpt lat="43.43966" lon="5.86028">
        <ele>355.34</ele>
        <time>2019-02-24T10:46:39Z</time>
      </trkpt>
      <trkpt lat="43.43962" lon="5.8603">
        <ele>355.34</ele>
        <time>2019-02-24T10:47:13Z</time>
      </trkpt>
      <trkpt lat="43.4396" lon="5.86029">
        <ele>355.34</ele>
        <time>2019-02-24T10:47:44Z</time>
      </trkpt>
      <trkpt lat="43.43967" lon="5.86032">
        <ele>355.83</ele>
        <time>2019-02-24T10:48:21Z</time>
      </trkpt>
      <trkpt lat="43.43968" lon="5.86032">
        <ele>355.83</ele>
        <time>2019-02-24T10:49:04Z</time>
      </trkpt>
      <trkpt lat="43.43966" lon="5.86032">
        <ele>355.34</ele>
        <time>2019-02-24T10:49:39Z</time>
      </trkpt>
      <trkpt lat="43.43963" lon="5.86033">
        <ele>355.34</ele>
        <time>2019-02-24T10:50:06Z</time>
      </trkpt>
      <trkpt lat="43.43967" lon="5.86033">
        <ele>355.34</ele>
        <time>2019-02-24T10:50:36Z</time>
      </trkpt>
      <trkpt lat="43.43972" lon="5.86033">
        <ele>355.34</ele>
        <time>2019-02-24T10:51:11Z</time>
      </trkpt>
      <trkpt lat="43.4397" lon="5.86033">
        <ele>355.34</ele>
        <time>2019-02-24T10:51:38Z</time>
      </trkpt>
      <trkpt lat="43.4397" lon="5.86033">
        <ele>355.34</ele>
        <time>2019-02-24T10:52:04Z</time>
      </trkpt>
      <trkpt lat="43.43969" lon="5.86031">
        <ele>355.34</ele>
        <time>2019-02-24T10:52:38Z</time>
      </trkpt>
      <trkpt lat="43.43969" lon="5.86031">
        <ele>355.34</ele>
        <time>2019-02-24T10:53:06Z</time>
      </trkpt>
      <trkpt lat="43.43968" lon="5.86032">
        <ele>355.34</ele>
        <time>2019-02-24T10:53:36Z</time>
      </trkpt>
      <trkpt lat="43.43969" lon="5.86035">
        <ele>355.34</ele>
        <time>2019-02-24T10:54:10Z</time>
      </trkpt>
      <trkpt lat="43.43971" lon="5.86034">
        <ele>355.83</ele>
        <time>2019-02-24T10:54:49Z</time>
      </trkpt>
      <trkpt lat="43.4397" lon="5.86034">
        <ele>355.83</ele>
        <time>2019-02-24T10:55:28Z</time>
      </trkpt>
      <trkpt lat="43.43972" lon="5.86033">
        <ele>356.31</ele>
        <time>2019-02-24T10:56:04Z</time>
      </trkpt>
      <trkpt lat="43.43972" lon="5.86033">
        <ele>356.31</ele>
        <time>2019-02-24T10:56:35Z</time>
      </trkpt>
      <trkpt lat="43.43971" lon="5.86034">
        <ele>356.31</ele>
        <time>2019-02-24T10:57:14Z</time>
      </trkpt>
      <trkpt lat="43.43969" lon="5.86036">
        <ele>356.31</ele>
        <time>2019-02-24T10:57:54Z</time>
      </trkpt>
      <trkpt lat="43.43969" lon="5.86037">
        <ele>356.31</ele>
        <time>2019-02-24T10:58:30Z</time>
      </trkpt>
      <trkpt lat="43.43973" lon="5.86035">
        <ele>356.79</ele>
        <time>2019-02-24T10:59:08Z</time>
      </trkpt>
      <trkpt lat="43.43973" lon="5.86031">
        <ele>356.79</ele>
        <time>2019-02-24T10:59:42Z</time>
      </trkpt>
      <trkpt lat="43.43972" lon="5.86031">
        <ele>358.23</ele>
        <time>2019-02-24T11:00:09Z</time>
      </trkpt>
    </trkseg>
  </trk>
</gpx>